OMA1711 OOMS-LIME
Flight info
| Callsign | OMA1711 |
|---|---|
| Flight time | N/A |
| Altitude | 34000 |
| Route | ITLA1N ITLAK DCT ITURA B400 GEPOT G652 TOKRA DCT KATIT DCT SITER M440 KSA T503 GADLI/N0464F360 T503 OVANO L768 FIRAS R655 LEBOR UR655 BALMA M601 EVENO UM601 EXELA UN127 LMO UN128 FSK UL608 DISOR DCT UTOMO/N0449F380 DCT GLOMY DCT ZDA DCT LABIN DCT NOBMI NOBM3K |
| Aircraft | A21N/M-SDE3FGHIRWY/LB1 |
Departure
| Time | 2026-04-28 22:11 |
|---|---|
| Airport | Muscat International Airport (OOMS) |
Arrival
| Time | N/A |
|---|---|
| Airport | Il Caravaggio International Airport (LIME) |
| Time | Latitude | Longitude | Altitude | Speed | Heading |
|---|---|---|---|---|---|
| 2026-04-28 21:58 | 23.60123 | 58.28382 | 64 ft | 0 kts | 172° |
| 2026-04-28 22:01 | 23.60133 | 58.28381 | 64 ft | 7 kts | 172° |
| 2026-04-28 22:01 | 23.60179 | 58.28373 | 64 ft | 7 kts | 172° |
| 2026-04-28 22:01 | 23.60225 | 58.28364 | 64 ft | 7 kts | 149° |
| 2026-04-28 22:01 | 23.60231 | 58.28334 | 64 ft | 0 kts | 85° |
| 2026-04-28 22:05 | 23.60231 | 58.28342 | 64 ft | 3 kts | 85° |
| 2026-04-28 22:05 | 23.60235 | 58.28397 | 64 ft | 11 kts | 85° |
| 2026-04-28 22:06 | 23.60241 | 58.28482 | 64 ft | 9 kts | 85° |
| 2026-04-28 22:06 | 23.60270 | 58.28510 | 64 ft | 7 kts | 352° |
| 2026-04-28 22:06 | 23.60344 | 58.28499 | 64 ft | 14 kts | 353° |
| 2026-04-28 22:06 | 23.60464 | 58.28484 | 64 ft | 18 kts | 353° |
| 2026-04-28 22:07 | 23.60536 | 58.28490 | 64 ft | 8 kts | 49° |
| 2026-04-28 22:07 | 23.60546 | 58.28558 | 64 ft | 13 kts | 85° |
| 2026-04-28 22:07 | 23.60556 | 58.28696 | 64 ft | 22 kts | 86° |
| 2026-04-28 22:07 | 23.60569 | 58.28881 | 64 ft | 26 kts | 85° |
| 2026-04-28 22:08 | 23.60586 | 58.29086 | 64 ft | 27 kts | 85° |
| 2026-04-28 22:08 | 23.60602 | 58.29293 | 64 ft | 27 kts | 84° |
| 2026-04-28 22:08 | 23.60618 | 58.29494 | 64 ft | 27 kts | 85° |
| 2026-04-28 22:08 | 23.60632 | 58.29671 | 64 ft | 15 kts | 83° |
| 2026-04-28 22:09 | 23.60683 | 58.29714 | 64 ft | 10 kts | 0° |
| 2026-04-28 22:09 | 23.60754 | 58.29704 | 64 ft | 12 kts | 351° |
| 2026-04-28 22:09 | 23.60840 | 58.29690 | 64 ft | 13 kts | 351° |
| 2026-04-28 22:09 | 23.60901 | 58.29667 | 64 ft | 7 kts | 282° |
| 2026-04-28 22:10 | 23.60897 | 58.29608 | 64 ft | 21 kts | 265° |
| 2026-04-28 22:10 | 23.60864 | 58.29206 | 64 ft | 82 kts | 265° |
| 2026-04-28 22:10 | 23.60800 | 58.28404 | 64 ft | 130 kts | 265° |
| 2026-04-28 22:10 | 23.60709 | 58.27266 | 74 ft | 168 kts | 264° |
| 2026-04-28 22:11 | 23.60605 | 58.25984 | 544 ft | 170 kts | 264° |
| 2026-04-28 22:11 | 23.60495 | 58.24687 | 1206 ft | 174 kts | 264° |
| 2026-04-28 22:11 | 23.60385 | 58.23348 | 1806 ft | 180 kts | 265° |
| 2026-04-28 22:11 | 23.60274 | 58.21943 | 1975 ft | 198 kts | 265° |
| 2026-04-28 22:12 | 23.60149 | 58.20358 | 2055 ft | 223 kts | 265° |
| 2026-04-28 22:12 | 23.60005 | 58.18559 | 2118 ft | 253 kts | 265° |
| 2026-04-28 22:12 | 23.59846 | 58.16572 | 2505 ft | 265 kts | 265° |
| 2026-04-28 22:12 | 23.59685 | 58.14580 | 3333 ft | 265 kts | 265° |
| 2026-04-28 22:13 | 23.59521 | 58.12561 | 4009 ft | 268 kts | 265° |
| 2026-04-28 22:13 | 23.59357 | 58.10534 | 4734 ft | 269 kts | 265° |
| 2026-04-28 22:13 | 23.59000 | 58.08523 | 5364 ft | 274 kts | 248° |
| 2026-04-28 22:13 | 23.57923 | 58.06822 | 6045 ft | 276 kts | 224° |
| 2026-04-28 22:14 | 23.56880 | 58.06023 | 6458 ft | 279 kts | 208° |
| 2026-04-28 22:14 | 23.54354 | 58.05490 | 7286 ft | 285 kts | 176° |
| 2026-04-28 22:14 | 23.52447 | 58.06108 | 7901 ft | 289 kts | 155° |
| 2026-04-28 22:14 | 23.50655 | 58.07117 | 8571 ft | 291 kts | 155° |
| 2026-04-28 22:15 | 23.48818 | 58.08070 | 9184 ft | 293 kts | 157° |
| 2026-04-28 22:15 | 23.47560 | 58.08684 | 9635 ft | 294 kts | 158° |
| 2026-04-28 22:15 | 23.45675 | 58.09566 | 10237 ft | 297 kts | 159° |
| 2026-04-28 22:15 | 23.43699 | 58.10457 | 10397 ft | 318 kts | 159° |
| 2026-04-28 22:16 | 23.41513 | 58.11145 | 10472 ft | 338 kts | 175° |
| 2026-04-28 22:16 | 23.39151 | 58.10991 | 10649 ft | 351 kts | 195° |
| 2026-04-28 22:16 | 23.36942 | 58.09927 | 11384 ft | 347 kts | 211° |
| 2026-04-28 22:16 | 23.34858 | 58.08560 | 11955 ft | 352 kts | 213° |
| 2026-04-28 22:17 | 23.32774 | 58.07143 | 12593 ft | 354 kts | 213° |
| 2026-04-28 22:17 | 23.30681 | 58.05698 | 13206 ft | 357 kts | 214° |
| 2026-04-28 22:17 | 23.28577 | 58.04232 | 13811 ft | 360 kts | 214° |
| 2026-04-28 22:17 | 23.26546 | 58.02624 | 14381 ft | 362 kts | 223° |
| 2026-04-28 22:18 | 23.24883 | 58.00569 | 14957 ft | 363 kts | 236° |
| 2026-04-28 22:18 | 23.23701 | 57.98141 | 15517 ft | 365 kts | 248° |
| 2026-04-28 22:18 | 23.22743 | 57.95576 | 16067 ft | 368 kts | 249° |
| 2026-04-28 22:18 | 23.21800 | 57.92975 | 16606 ft | 371 kts | 249° |
| 2026-04-28 22:19 | 23.20865 | 57.90353 | 17135 ft | 373 kts | 249° |
| 2026-04-28 22:19 | 23.19930 | 57.87701 | 17647 ft | 376 kts | 249° |
| 2026-04-28 22:19 | 23.18996 | 57.85034 | 18135 ft | 379 kts | 249° |
| 2026-04-28 22:19 | 23.18074 | 57.82388 | 18627 ft | 381 kts | 250° |
| 2026-04-28 22:20 | 23.17136 | 57.79686 | 19113 ft | 383 kts | 250° |
| 2026-04-28 22:20 | 23.16195 | 57.76973 | 19576 ft | 385 kts | 250° |
| 2026-04-28 22:20 | 23.15248 | 57.74238 | 20031 ft | 387 kts | 250° |
| 2026-04-28 22:20 | 23.14297 | 57.71490 | 20475 ft | 389 kts | 250° |
| 2026-04-28 22:21 | 23.13342 | 57.68728 | 20896 ft | 391 kts | 250° |
| 2026-04-28 22:21 | 23.12383 | 57.65953 | 21299 ft | 394 kts | 250° |
| 2026-04-28 22:21 | 23.11417 | 57.63161 | 21706 ft | 396 kts | 250° |
| 2026-04-28 22:21 | 23.10445 | 57.60352 | 22095 ft | 398 kts | 250° |
| 2026-04-28 22:22 | 23.09470 | 57.57535 | 22477 ft | 399 kts | 250° |
| 2026-04-28 22:22 | 23.08488 | 57.54700 | 22842 ft | 401 kts | 251° |
| 2026-04-28 22:22 | 23.07515 | 57.51890 | 23194 ft | 403 kts | 251° |
| 2026-04-28 22:22 | 23.06526 | 57.49037 | 23560 ft | 404 kts | 251° |
| 2026-04-28 22:23 | 23.05533 | 57.46171 | 23905 ft | 406 kts | 251° |
| 2026-04-28 22:23 | 23.04537 | 57.43300 | 24240 ft | 407 kts | 251° |
| 2026-04-28 22:23 | 23.03537 | 57.40420 | 24568 ft | 408 kts | 251° |
| 2026-04-28 22:23 | 23.02531 | 57.37523 | 24884 ft | 410 kts | 251° |
| 2026-04-28 22:24 | 23.01523 | 57.34623 | 25189 ft | 411 kts | 251° |
| 2026-04-28 22:24 | 23.00510 | 57.31714 | 25487 ft | 412 kts | 250° |
| 2026-04-28 22:24 | 22.99300 | 57.28885 | 25772 ft | 414 kts | 244° |
| 2026-04-28 22:24 | 22.97978 | 57.26106 | 26058 ft | 415 kts | 244° |
| 2026-04-28 22:25 | 22.96649 | 57.23318 | 26328 ft | 416 kts | 244° |
| 2026-04-28 22:25 | 22.95313 | 57.20521 | 26595 ft | 417 kts | 244° |
| 2026-04-28 22:25 | 22.93979 | 57.17729 | 26847 ft | 418 kts | 244° |
| 2026-04-28 22:25 | 22.92634 | 57.14918 | 27095 ft | 419 kts | 244° |
| 2026-04-28 22:26 | 22.91303 | 57.12141 | 27337 ft | 420 kts | 244° |
| 2026-04-28 22:26 | 22.89953 | 57.09325 | 27574 ft | 421 kts | 244° |
| 2026-04-28 22:26 | 22.88595 | 57.06495 | 27803 ft | 422 kts | 244° |
| 2026-04-28 22:26 | 22.87234 | 57.03661 | 28025 ft | 423 kts | 244° |
| 2026-04-28 22:27 | 22.85869 | 57.00820 | 28238 ft | 424 kts | 244° |
| 2026-04-28 22:27 | 22.84506 | 56.97984 | 28538 ft | 423 kts | 244° |
| 2026-04-28 22:27 | 22.83141 | 56.95149 | 28768 ft | 424 kts | 244° |
| 2026-04-28 22:27 | 22.81791 | 56.92347 | 28934 ft | 426 kts | 244° |
| 2026-04-28 22:28 | 22.80421 | 56.89496 | 29148 ft | 426 kts | 244° |
| 2026-04-28 22:28 | 22.79051 | 56.86645 | 29339 ft | 427 kts | 244° |
| 2026-04-28 22:28 | 22.77671 | 56.83773 | 29527 ft | 428 kts | 244° |
| 2026-04-28 22:28 | 22.76296 | 56.80910 | 29703 ft | 429 kts | 244° |
| 2026-04-28 22:29 | 22.74919 | 56.78042 | 29965 ft | 428 kts | 244° |
| 2026-04-28 22:29 | 22.73539 | 56.75172 | 30102 ft | 430 kts | 244° |
| 2026-04-28 22:29 | 22.72154 | 56.72291 | 30247 ft | 432 kts | 244° |
| 2026-04-28 22:29 | 22.70764 | 56.69402 | 30400 ft | 433 kts | 244° |
| 2026-04-28 22:30 | 22.69371 | 56.66506 | 30565 ft | 434 kts | 244° |
| 2026-04-28 22:30 | 22.67973 | 56.63603 | 30770 ft | 434 kts | 244° |
| 2026-04-28 22:30 | 22.66579 | 56.60708 | 30965 ft | 434 kts | 244° |
| 2026-04-28 22:30 | 22.65183 | 56.57809 | 31156 ft | 434 kts | 244° |
| 2026-04-28 22:31 | 22.63784 | 56.54908 | 31347 ft | 434 kts | 244° |
| 2026-04-28 22:31 | 22.62404 | 56.52045 | 31529 ft | 434 kts | 244° |
| 2026-04-28 22:31 | 22.61002 | 56.49139 | 31722 ft | 434 kts | 244° |
| 2026-04-28 22:31 | 22.59600 | 56.46234 | 31946 ft | 433 kts | 244° |
| 2026-04-28 22:32 | 22.58203 | 56.43341 | 32105 ft | 434 kts | 244° |
| 2026-04-28 22:32 | 22.56797 | 56.40431 | 32276 ft | 435 kts | 244° |
| 2026-04-28 22:32 | 22.55411 | 56.37567 | 32447 ft | 435 kts | 244° |
| 2026-04-28 22:32 | 22.54002 | 56.34672 | 32613 ft | 435 kts | 244° |
| 2026-04-28 22:33 | 22.52592 | 56.31773 | 32779 ft | 436 kts | 244° |
| 2026-04-28 22:33 | 22.51179 | 56.28866 | 32942 ft | 436 kts | 244° |
| 2026-04-28 22:33 | 22.49766 | 56.25960 | 33099 ft | 437 kts | 244° |
| 2026-04-28 22:34 | 22.46922 | 56.20105 | 33270 ft | 441 kts | 244° |
| 2026-04-28 22:34 | 22.45498 | 56.17172 | 33441 ft | 441 kts | 244° |
| 2026-04-28 22:34 | 22.44069 | 56.14232 | 33675 ft | 440 kts | 244° |
| 2026-04-28 22:34 | 22.42637 | 56.11285 | 33801 ft | 444 kts | 245° |
| 2026-04-28 22:35 | 22.41198 | 56.08322 | 33833 ft | 444 kts | 245° |
| 2026-04-28 22:35 | 22.38351 | 56.02468 | 33844 ft | 442 kts | 244° |
| 2026-04-28 22:36 | 22.35464 | 55.96591 | 33845 ft | 442 kts | 244° |
| 2026-04-28 22:36 | 22.32581 | 55.90729 | 33845 ft | 441 kts | 244° |
| 2026-04-28 22:37 | 22.29701 | 55.84873 | 33845 ft | 441 kts | 244° |
| 2026-04-28 22:37 | 22.26838 | 55.79053 | 33845 ft | 441 kts | 244° |
| 2026-04-28 22:38 | 22.23954 | 55.73189 | 33845 ft | 441 kts | 244° |
| 2026-04-28 22:38 | 22.21076 | 55.67333 | 33845 ft | 441 kts | 244° |
| 2026-04-28 22:39 | 22.18224 | 55.61447 | 33843 ft | 441 kts | 248° |
| 2026-04-28 22:39 | 22.17259 | 55.58363 | 33844 ft | 438 kts | 259° |
| 2026-04-28 22:39 | 22.16890 | 55.55122 | 33845 ft | 436 kts | 270° |
| 2026-04-28 22:39 | 22.17146 | 55.51872 | 33845 ft | 435 kts | 281° |
| 2026-04-28 22:40 | 22.17695 | 55.48663 | 33846 ft | 434 kts | 280° |
| 2026-04-28 22:40 | 22.18962 | 55.42285 | 33845 ft | 434 kts | 283° |
| 2026-04-28 22:41 | 22.20368 | 55.35948 | 33845 ft | 434 kts | 283° |
| 2026-04-28 22:41 | 22.21780 | 55.29665 | 33845 ft | 433 kts | 283° |
| 2026-04-28 22:42 | 22.23205 | 55.23342 | 33845 ft | 433 kts | 283° |
| 2026-04-28 22:42 | 22.24631 | 55.17012 | 33845 ft | 433 kts | 283° |
| 2026-04-28 22:43 | 22.26054 | 55.10693 | 33845 ft | 433 kts | 283° |
| 2026-04-28 22:43 | 22.27476 | 55.04365 | 33845 ft | 433 kts | 283° |
| 2026-04-28 22:44 | 22.28885 | 54.98083 | 33845 ft | 433 kts | 283° |
| 2026-04-28 22:44 | 22.30302 | 54.91752 | 33845 ft | 433 kts | 283° |
| 2026-04-28 22:45 | 22.31720 | 54.85408 | 33845 ft | 433 kts | 283° |
| 2026-04-28 22:45 | 22.33123 | 54.79116 | 33845 ft | 433 kts | 283° |
| 2026-04-28 22:46 | 22.34530 | 54.72795 | 33845 ft | 432 kts | 283° |
| 2026-04-28 22:46 | 22.35935 | 54.66470 | 33845 ft | 432 kts | 283° |
| 2026-04-28 22:47 | 22.37336 | 54.60146 | 33845 ft | 432 kts | 283° |
| 2026-04-28 22:47 | 22.38735 | 54.53824 | 33845 ft | 432 kts | 283° |
| 2026-04-28 22:48 | 22.40120 | 54.47550 | 33845 ft | 432 kts | 283° |
| 2026-04-28 22:48 | 22.41509 | 54.41243 | 33845 ft | 431 kts | 283° |
| 2026-04-28 22:49 | 22.42900 | 54.34917 | 33845 ft | 431 kts | 283° |
| 2026-04-28 22:49 | 22.44287 | 54.28598 | 33845 ft | 431 kts | 283° |
| 2026-04-28 22:50 | 22.45661 | 54.22322 | 33845 ft | 431 kts | 283° |
| 2026-04-28 22:50 | 22.47045 | 54.15993 | 33845 ft | 431 kts | 283° |
| 2026-04-28 22:51 | 22.48415 | 54.09711 | 33845 ft | 431 kts | 283° |
| 2026-04-28 22:51 | 22.49788 | 54.03404 | 33845 ft | 431 kts | 283° |
| 2026-04-28 22:52 | 22.51150 | 53.97132 | 33801 ft | 424 kts | 283° |
| 2026-04-28 22:52 | 22.52497 | 53.90912 | 33793 ft | 425 kts | 283° |
| 2026-04-28 22:53 | 22.53844 | 53.84687 | 33790 ft | 425 kts | 283° |
| 2026-04-28 22:53 | 22.55181 | 53.78496 | 33788 ft | 425 kts | 283° |
| 2026-04-28 22:54 | 22.56522 | 53.72275 | 33786 ft | 424 kts | 283° |
| 2026-04-28 22:54 | 22.57858 | 53.66060 | 33784 ft | 424 kts | 283° |
| 2026-04-28 22:55 | 22.59193 | 53.59842 | 33782 ft | 424 kts | 283° |
| 2026-04-28 22:55 | 22.60523 | 53.53632 | 33780 ft | 423 kts | 283° |
| 2026-04-28 22:56 | 22.61850 | 53.47426 | 33778 ft | 422 kts | 283° |
| 2026-04-28 22:56 | 22.63168 | 53.41248 | 33778 ft | 421 kts | 283° |
| 2026-04-28 22:57 | 22.64484 | 53.35066 | 33777 ft | 421 kts | 283° |
| 2026-04-28 22:57 | 22.65789 | 53.28924 | 33776 ft | 421 kts | 283° |
| 2026-04-28 22:58 | 22.67100 | 53.22743 | 33775 ft | 421 kts | 283° |
| 2026-04-28 22:58 | 22.68408 | 53.16561 | 33773 ft | 420 kts | 283° |
| 2026-04-28 22:59 | 22.69713 | 53.10385 | 33771 ft | 420 kts | 282° |
| 2026-04-28 22:59 | 22.71005 | 53.04256 | 33770 ft | 420 kts | 282° |
| 2026-04-28 23:00 | 22.72303 | 52.98089 | 33771 ft | 420 kts | 282° |
| 2026-04-28 23:00 | 22.73597 | 52.91921 | 33774 ft | 419 kts | 282° |
| 2026-04-28 23:01 | 22.74891 | 52.85746 | 33775 ft | 419 kts | 282° |
| 2026-04-28 23:01 | 22.76181 | 52.79581 | 33777 ft | 419 kts | 282° |
| 2026-04-28 23:02 | 22.77461 | 52.73445 | 33780 ft | 419 kts | 282° |
| 2026-04-28 23:02 | 22.78745 | 52.67279 | 33785 ft | 419 kts | 282° |
| 2026-04-28 23:03 | 22.80028 | 52.61107 | 33790 ft | 419 kts | 282° |
| 2026-04-28 23:03 | 22.81100 | 52.55942 | 33796 ft | 419 kts | 282° |
| 2026-04-28 23:04 | 22.82374 | 52.49809 | 33803 ft | 419 kts | 283° |
| 2026-04-28 23:04 | 22.85432 | 52.40915 | 33836 ft | 420 kts | 291° |
| 2026-04-28 23:05 | 22.87700 | 52.35088 | 33838 ft | 419 kts | 291° |
| 2026-04-28 23:05 | 22.89988 | 52.29268 | 33839 ft | 419 kts | 291° |
| 2026-04-28 23:06 | 22.92267 | 52.23487 | 33840 ft | 419 kts | 291° |
| 2026-04-28 23:06 | 22.94558 | 52.17674 | 33842 ft | 419 kts | 291° |
| 2026-04-28 23:07 | 22.96850 | 52.11854 | 33843 ft | 419 kts | 291° |
| 2026-04-28 23:07 | 22.99138 | 52.06039 | 33845 ft | 419 kts | 291° |
| 2026-04-28 23:08 | 23.01411 | 52.00257 | 33844 ft | 418 kts | 291° |
| 2026-04-28 23:08 | 23.03690 | 51.94449 | 33844 ft | 418 kts | 291° |
| 2026-04-28 23:09 | 23.05968 | 51.88638 | 33843 ft | 418 kts | 291° |
| 2026-04-28 23:09 | 23.08250 | 51.82811 | 33842 ft | 418 kts | 291° |
| 2026-04-28 23:10 | 23.10523 | 51.76996 | 33840 ft | 418 kts | 291° |
| 2026-04-28 23:10 | 23.12795 | 51.71178 | 33838 ft | 418 kts | 291° |
| 2026-04-28 23:11 | 23.15061 | 51.65365 | 33836 ft | 418 kts | 291° |
| 2026-04-28 23:11 | 23.17326 | 51.59550 | 33835 ft | 418 kts | 291° |
| 2026-04-28 23:12 | 23.19573 | 51.53773 | 33834 ft | 418 kts | 291° |
| 2026-04-28 23:12 | 23.21839 | 51.47940 | 33833 ft | 418 kts | 291° |
| 2026-04-28 23:13 | 23.24095 | 51.42125 | 33832 ft | 417 kts | 291° |
| 2026-04-28 23:13 | 23.26347 | 51.36312 | 33831 ft | 417 kts | 291° |
| 2026-04-28 23:14 | 23.28601 | 51.30485 | 33830 ft | 417 kts | 291° |
| 2026-04-28 23:14 | 23.30836 | 51.24701 | 33829 ft | 417 kts | 291° |
| 2026-04-28 23:15 | 23.33083 | 51.18879 | 33828 ft | 417 kts | 291° |
| 2026-04-28 23:15 | 23.35326 | 51.13059 | 33826 ft | 417 kts | 290° |
| 2026-04-28 23:16 | 23.37567 | 51.07236 | 33824 ft | 417 kts | 290° |
| 2026-04-28 23:16 | 23.39809 | 51.01404 | 33822 ft | 417 kts | 290° |
| 2026-04-28 23:17 | 23.42046 | 50.95579 | 33821 ft | 417 kts | 290° |
| 2026-04-28 23:17 | 23.44277 | 50.89757 | 33819 ft | 417 kts | 290° |
| 2026-04-28 23:18 | 23.46508 | 50.83929 | 33817 ft | 416 kts | 290° |
| 2026-04-28 23:18 | 23.48722 | 50.78140 | 33815 ft | 416 kts | 290° |
| 2026-04-28 23:19 | 23.50948 | 50.72310 | 33806 ft | 416 kts | 290° |
| 2026-04-28 23:19 | 23.53164 | 50.66499 | 33802 ft | 415 kts | 290° |
| 2026-04-28 23:20 | 23.55378 | 50.60687 | 33800 ft | 415 kts | 290° |
| 2026-04-28 23:20 | 23.57593 | 50.54863 | 33800 ft | 415 kts | 290° |
| 2026-04-28 23:21 | 23.59802 | 50.49048 | 33802 ft | 415 kts | 290° |
| 2026-04-28 23:21 | 23.62008 | 50.43232 | 33809 ft | 415 kts | 289° |
| 2026-04-28 23:22 | 23.64210 | 50.37417 | 33812 ft | 415 kts | 289° |
| 2026-04-28 23:22 | 23.66396 | 50.31641 | 33814 ft | 415 kts | 289° |
| 2026-04-28 23:23 | 23.68593 | 50.25825 | 33816 ft | 414 kts | 289° |
| 2026-04-28 23:23 | 23.70789 | 50.20005 | 33816 ft | 414 kts | 289° |
| 2026-04-28 23:24 | 23.72979 | 50.14193 | 33817 ft | 414 kts | 289° |
| 2026-04-28 23:24 | 23.75169 | 50.08374 | 33817 ft | 414 kts | 289° |
| 2026-04-28 23:25 | 23.77343 | 50.02588 | 33817 ft | 414 kts | 289° |
| 2026-04-28 23:25 | 23.79527 | 49.96770 | 33819 ft | 414 kts | 289° |
| 2026-04-28 23:26 | 23.81710 | 49.90946 | 33819 ft | 414 kts | 289° |
| 2026-04-28 23:26 | 23.83874 | 49.85164 | 33819 ft | 414 kts | 289° |
| 2026-04-28 23:27 | 23.86051 | 49.79339 | 33819 ft | 414 kts | 289° |
| 2026-04-28 23:27 | 23.88227 | 49.73511 | 33820 ft | 413 kts | 289° |
| 2026-04-28 23:28 | 23.90398 | 49.67687 | 33820 ft | 413 kts | 289° |
| 2026-04-28 23:28 | 23.92562 | 49.61874 | 33821 ft | 413 kts | 289° |
| 2026-04-28 23:29 | 23.94712 | 49.56093 | 33821 ft | 413 kts | 289° |
| 2026-04-28 23:29 | 23.96876 | 49.50265 | 33821 ft | 413 kts | 289° |
| 2026-04-28 23:30 | 23.99036 | 49.44438 | 33820 ft | 412 kts | 289° |
| 2026-04-28 23:30 | 24.01173 | 49.38669 | 33813 ft | 411 kts | 289° |
| 2026-04-28 23:31 | 24.03321 | 49.32857 | 33811 ft | 411 kts | 289° |
| 2026-04-28 23:31 | 24.05460 | 49.27064 | 33812 ft | 411 kts | 289° |
| 2026-04-28 23:32 | 24.07586 | 49.21299 | 33812 ft | 410 kts | 289° |
| 2026-04-28 23:32 | 24.09723 | 49.15497 | 33813 ft | 410 kts | 289° |
| 2026-04-28 23:33 | 24.11855 | 49.09702 | 33813 ft | 410 kts | 289° |
| 2026-04-28 23:33 | 24.13986 | 49.03899 | 33813 ft | 410 kts | 289° |
| 2026-04-28 23:34 | 24.16114 | 48.98097 | 33813 ft | 410 kts | 288° |
| 2026-04-28 23:34 | 24.18223 | 48.92340 | 33812 ft | 410 kts | 288° |
| 2026-04-28 23:35 | 24.20181 | 48.86476 | 33811 ft | 409 kts | 287° |
| 2026-04-28 23:35 | 24.22116 | 48.80609 | 33810 ft | 409 kts | 287° |
| 2026-04-28 23:36 | 24.24055 | 48.74756 | 33808 ft | 408 kts | 287° |
| 2026-04-28 23:36 | 24.25998 | 48.68901 | 33807 ft | 408 kts | 287° |
| 2026-04-28 23:37 | 24.27928 | 48.63094 | 33806 ft | 408 kts | 287° |
| 2026-04-28 23:37 | 24.29870 | 48.57245 | 33805 ft | 407 kts | 287° |
| 2026-04-28 23:38 | 24.31808 | 48.51408 | 33804 ft | 407 kts | 287° |
| 2026-04-28 23:38 | 24.33739 | 48.45583 | 33809 ft | 406 kts | 287° |
| 2026-04-28 23:39 | 24.35654 | 48.39800 | 33809 ft | 405 kts | 287° |
| 2026-04-28 23:39 | 24.37579 | 48.33979 | 33808 ft | 405 kts | 287° |
| 2026-04-28 23:40 | 24.39486 | 48.28208 | 33821 ft | 403 kts | 287° |
| 2026-04-28 23:40 | 24.41399 | 48.22405 | 33827 ft | 403 kts | 287° |
| 2026-04-28 23:41 | 24.43306 | 48.16614 | 33828 ft | 403 kts | 286° |
| 2026-04-28 23:41 | 24.45210 | 48.10826 | 33828 ft | 403 kts | 286° |
| 2026-04-28 23:42 | 24.47101 | 48.05068 | 33829 ft | 403 kts | 286° |
| 2026-04-28 23:42 | 24.49004 | 47.99264 | 33830 ft | 403 kts | 286° |
| 2026-04-28 23:43 | 24.50887 | 47.93515 | 33831 ft | 402 kts | 286° |
| 2026-04-28 23:43 | 24.52778 | 47.87729 | 33832 ft | 402 kts | 286° |
| 2026-04-28 23:44 | 24.54665 | 47.81950 | 33858 ft | 401 kts | 286° |
| 2026-04-28 23:44 | 24.56706 | 47.76233 | 33860 ft | 402 kts | 289° |
| 2026-04-28 23:45 | 24.58856 | 47.70558 | 33860 ft | 402 kts | 289° |
| 2026-04-28 23:45 | 24.61003 | 47.64918 | 33860 ft | 402 kts | 289° |
| 2026-04-28 23:46 | 24.63173 | 47.59228 | 33860 ft | 402 kts | 289° |
| 2026-04-28 23:46 | 24.65340 | 47.53548 | 33861 ft | 402 kts | 289° |
| 2026-04-28 23:47 | 24.67504 | 47.47882 | 33863 ft | 401 kts | 288° |
| 2026-04-28 23:47 | 24.69647 | 47.42257 | 33867 ft | 401 kts | 288° |
| 2026-04-28 23:48 | 24.71830 | 47.36514 | 33897 ft | 409 kts | 289° |
| 2026-04-28 23:48 | 24.74029 | 47.30739 | 33926 ft | 408 kts | 289° |
| 2026-04-28 23:49 | 24.76206 | 47.25011 | 33928 ft | 408 kts | 289° |
| 2026-04-28 23:49 | 24.78391 | 47.19256 | 33927 ft | 407 kts | 289° |
| 2026-04-28 23:50 | 24.80564 | 47.13524 | 33925 ft | 406 kts | 289° |
| 2026-04-28 23:50 | 24.82736 | 47.07783 | 33924 ft | 406 kts | 289° |
| 2026-04-28 23:51 | 24.84907 | 47.02041 | 33922 ft | 405 kts | 289° |
| 2026-04-28 23:51 | 24.87072 | 46.96302 | 33921 ft | 405 kts | 289° |
| 2026-04-28 23:52 | 24.89235 | 46.90563 | 33922 ft | 406 kts | 289° |
| 2026-04-28 23:52 | 24.91034 | 46.85782 | 33923 ft | 407 kts | 289° |
| 2026-04-28 23:53 | 24.93200 | 46.80024 | 33921 ft | 406 kts | 289° |
| 2026-04-28 23:53 | 24.95353 | 46.74288 | 33916 ft | 404 kts | 289° |
| 2026-04-28 23:54 | 24.97820 | 46.68697 | 33913 ft | 409 kts | 297° |
| 2026-04-28 23:54 | 25.01458 | 46.63796 | 33914 ft | 419 kts | 310° |
| 2026-04-28 23:55 | 25.05653 | 46.59376 | 33916 ft | 420 kts | 310° |
| 2026-04-28 23:55 | 25.09937 | 46.54918 | 33919 ft | 421 kts | 310° |
| 2026-04-28 23:56 | 25.14198 | 46.50514 | 33921 ft | 421 kts | 311° |
| 2026-04-28 23:56 | 25.18485 | 46.46100 | 33926 ft | 419 kts | 310° |
| 2026-04-28 23:57 | 25.22744 | 46.41730 | 33914 ft | 417 kts | 310° |
| 2026-04-28 23:57 | 25.26969 | 46.37385 | 33915 ft | 417 kts | 310° |
| 2026-04-28 23:58 | 25.31220 | 46.33017 | 33917 ft | 417 kts | 310° |
| 2026-04-28 23:58 | 25.35476 | 46.28645 | 33921 ft | 416 kts | 309° |
| 2026-04-28 23:59 | 25.39679 | 46.24325 | 33925 ft | 415 kts | 309° |
| 2026-04-28 23:59 | 25.43911 | 46.19971 | 33926 ft | 415 kts | 309° |
| 2026-04-29 00:00 | 25.48138 | 46.15619 | 33927 ft | 414 kts | 309° |
| 2026-04-29 00:00 | 25.52365 | 46.11264 | 33928 ft | 414 kts | 309° |
| 2026-04-29 00:01 | 25.56553 | 46.06944 | 33929 ft | 413 kts | 309° |
| 2026-04-29 00:01 | 25.60764 | 46.02598 | 33930 ft | 413 kts | 309° |
| 2026-04-29 00:02 | 25.64950 | 45.98248 | 33930 ft | 412 kts | 308° |
| 2026-04-29 00:02 | 25.69147 | 45.93887 | 33936 ft | 413 kts | 308° |
| 2026-04-29 00:03 | 25.73319 | 45.89553 | 33936 ft | 413 kts | 308° |
| 2026-04-29 00:03 | 25.77523 | 45.85187 | 33936 ft | 413 kts | 308° |
| 2026-04-29 00:04 | 25.81718 | 45.80829 | 33936 ft | 413 kts | 308° |
| 2026-04-29 00:04 | 25.85913 | 45.76469 | 33937 ft | 413 kts | 308° |
| 2026-04-29 00:05 | 25.90076 | 45.72125 | 33937 ft | 413 kts | 308° |
| 2026-04-29 00:05 | 25.94270 | 45.67750 | 33938 ft | 413 kts | 308° |
| 2026-04-29 00:06 | 25.98458 | 45.63380 | 33940 ft | 413 kts | 308° |
| 2026-04-29 00:06 | 26.02660 | 45.58995 | 33942 ft | 415 kts | 307° |
| 2026-04-29 00:07 | 26.06876 | 45.54590 | 33943 ft | 415 kts | 307° |
| 2026-04-29 00:07 | 26.11085 | 45.50190 | 33946 ft | 415 kts | 307° |
| 2026-04-29 00:08 | 26.15271 | 45.45809 | 33950 ft | 415 kts | 307° |
| 2026-04-29 00:08 | 26.19482 | 45.41387 | 33953 ft | 415 kts | 307° |
| 2026-04-29 00:09 | 26.23691 | 45.36965 | 33954 ft | 415 kts | 307° |
| 2026-04-29 00:09 | 26.27901 | 45.32540 | 33956 ft | 416 kts | 307° |
| 2026-04-29 00:10 | 26.32108 | 45.28121 | 33956 ft | 416 kts | 307° |
| 2026-04-29 00:10 | 26.36293 | 45.23731 | 33957 ft | 416 kts | 307° |
| 2026-04-29 00:11 | 26.40505 | 45.19311 | 33958 ft | 416 kts | 307° |
| 2026-04-29 00:12 | 26.46830 | 45.12671 | 33958 ft | 416 kts | 307° |
| 2026-04-29 00:12 | 26.51046 | 45.08241 | 33960 ft | 417 kts | 307° |
| 2026-04-29 00:13 | 26.55269 | 45.03798 | 33960 ft | 417 kts | 306° |
| 2026-04-29 00:13 | 26.59483 | 44.99357 | 33960 ft | 416 kts | 306° |
| 2026-04-29 00:14 | 26.63666 | 44.94935 | 33960 ft | 416 kts | 306° |
| 2026-04-29 00:14 | 26.67880 | 44.90482 | 33960 ft | 416 kts | 306° |
| 2026-04-29 00:15 | 26.72093 | 44.86029 | 33960 ft | 416 kts | 306° |
| 2026-04-29 00:15 | 26.76305 | 44.81574 | 33960 ft | 416 kts | 306° |
| 2026-04-29 00:16 | 26.80478 | 44.77140 | 33959 ft | 415 kts | 306° |
| 2026-04-29 00:16 | 26.84674 | 44.72679 | 33959 ft | 415 kts | 306° |
| 2026-04-29 00:17 | 26.88872 | 44.68215 | 33958 ft | 415 kts | 306° |
| 2026-04-29 00:17 | 26.93064 | 44.63755 | 33957 ft | 415 kts | 306° |
| 2026-04-29 00:18 | 26.97224 | 44.59325 | 33954 ft | 415 kts | 306° |
| 2026-04-29 00:18 | 27.01400 | 44.54862 | 33951 ft | 415 kts | 306° |
| 2026-04-29 00:19 | 27.05577 | 44.50388 | 33948 ft | 415 kts | 306° |
| 2026-04-29 00:19 | 27.09758 | 44.45910 | 33945 ft | 416 kts | 306° |
| 2026-04-29 00:20 | 27.13954 | 44.41414 | 33940 ft | 417 kts | 306° |
| 2026-04-29 00:20 | 27.18118 | 44.36946 | 33939 ft | 417 kts | 306° |
| 2026-04-29 00:21 | 27.22319 | 44.32437 | 33937 ft | 417 kts | 306° |
| 2026-04-29 00:21 | 27.26493 | 44.27957 | 33935 ft | 416 kts | 306° |
| 2026-04-29 00:22 | 27.30696 | 44.23444 | 33935 ft | 417 kts | 306° |
| 2026-04-29 00:22 | 27.34893 | 44.18933 | 33948 ft | 417 kts | 306° |
| 2026-04-29 00:23 | 27.39116 | 44.14386 | 34163 ft | 422 kts | 306° |
| 2026-04-29 00:23 | 27.41216 | 44.12126 | 34370 ft | 422 kts | 306° |
| 2026-04-29 00:23 | 27.43332 | 44.09849 | 34613 ft | 420 kts | 306° |
| 2026-04-29 00:23 | 27.45445 | 44.07574 | 34861 ft | 419 kts | 306° |
| 2026-04-29 00:24 | 27.47555 | 44.05299 | 35085 ft | 419 kts | 306° |
| 2026-04-29 00:24 | 27.49655 | 44.03035 | 35320 ft | 418 kts | 306° |
| 2026-04-29 00:24 | 27.51756 | 44.00768 | 35518 ft | 417 kts | 306° |
| 2026-04-29 00:24 | 27.53847 | 43.98510 | 35760 ft | 417 kts | 306° |
| 2026-04-29 00:25 | 27.55944 | 43.96241 | 35875 ft | 419 kts | 306° |
| 2026-04-29 00:25 | 27.60114 | 43.91734 | 35910 ft | 416 kts | 306° |
| 2026-04-29 00:26 | 27.64290 | 43.87212 | 35911 ft | 415 kts | 305° |
| 2026-04-29 00:26 | 27.68453 | 43.82699 | 35911 ft | 415 kts | 305° |
| 2026-04-29 00:27 | 27.72622 | 43.78175 | 35909 ft | 415 kts | 305° |
| 2026-04-29 00:27 | 27.76785 | 43.73653 | 35908 ft | 415 kts | 305° |
| 2026-04-29 00:28 | 27.80959 | 43.69113 | 35907 ft | 415 kts | 305° |
| 2026-04-29 00:28 | 27.85049 | 43.64582 | 35908 ft | 412 kts | 303° |
| 2026-04-29 00:29 | 27.88966 | 43.59851 | 35907 ft | 411 kts | 302° |
| 2026-04-29 00:29 | 27.92874 | 43.55125 | 35907 ft | 411 kts | 302° |
| 2026-04-29 00:30 | 27.96789 | 43.50397 | 35907 ft | 411 kts | 302° |
| 2026-04-29 00:30 | 28.00675 | 43.45704 | 35907 ft | 410 kts | 302° |
| 2026-04-29 00:31 | 28.04594 | 43.40969 | 35906 ft | 410 kts | 302° |
| 2026-04-29 00:31 | 28.08478 | 43.36274 | 35906 ft | 410 kts | 302° |
| 2026-04-29 00:32 | 28.12382 | 43.31550 | 35906 ft | 410 kts | 302° |
| 2026-04-29 00:32 | 28.16287 | 43.26820 | 35905 ft | 411 kts | 302° |
| 2026-04-29 00:33 | 28.20188 | 43.22091 | 35904 ft | 411 kts | 302° |
| 2026-04-29 00:33 | 28.24070 | 43.17380 | 35905 ft | 411 kts | 302° |
| 2026-04-29 00:34 | 28.27976 | 43.12634 | 35905 ft | 410 kts | 302° |
| 2026-04-29 00:34 | 28.31861 | 43.07908 | 35905 ft | 411 kts | 302° |
| 2026-04-29 00:35 | 28.35757 | 43.03164 | 35904 ft | 411 kts | 302° |
| 2026-04-29 00:35 | 28.39651 | 42.98417 | 35908 ft | 409 kts | 302° |
| 2026-04-29 00:36 | 28.43524 | 42.93689 | 35910 ft | 409 kts | 302° |
| 2026-04-29 00:36 | 28.47400 | 42.88952 | 35911 ft | 409 kts | 302° |
| 2026-04-29 00:37 | 28.51278 | 42.84206 | 35910 ft | 410 kts | 302° |
| 2026-04-29 00:37 | 28.55175 | 42.79434 | 35909 ft | 411 kts | 302° |
| 2026-04-29 00:38 | 28.59033 | 42.74704 | 35910 ft | 410 kts | 302° |
| 2026-04-29 00:38 | 28.62919 | 42.69934 | 35910 ft | 410 kts | 302° |
| 2026-04-29 00:39 | 28.66770 | 42.65159 | 35911 ft | 409 kts | 302° |
| 2026-04-29 00:39 | 28.70619 | 42.60378 | 35913 ft | 409 kts | 302° |
| 2026-04-29 00:40 | 28.74471 | 42.55605 | 35914 ft | 409 kts | 302° |
| 2026-04-29 00:40 | 28.78299 | 42.50867 | 35916 ft | 409 kts | 302° |
| 2026-04-29 00:41 | 28.82143 | 42.46110 | 35923 ft | 407 kts | 302° |
| 2026-04-29 00:41 | 28.85982 | 42.41356 | 35926 ft | 407 kts | 302° |
| 2026-04-29 00:42 | 28.89174 | 42.37400 | 35928 ft | 407 kts | 302° |
| 2026-04-29 00:42 | 28.93628 | 42.31877 | 35930 ft | 407 kts | 302° |
| 2026-04-29 00:43 | 28.97461 | 42.27120 | 35932 ft | 407 kts | 302° |
| 2026-04-29 00:43 | 29.00644 | 42.23165 | 35932 ft | 407 kts | 302° |
| 2026-04-29 00:44 | 29.04480 | 42.18387 | 35931 ft | 407 kts | 302° |
| 2026-04-29 00:44 | 29.08299 | 42.13603 | 35931 ft | 407 kts | 302° |
| 2026-04-29 00:45 | 29.12120 | 42.08822 | 35932 ft | 407 kts | 302° |
| 2026-04-29 00:45 | 29.15947 | 42.04035 | 35933 ft | 407 kts | 302° |
| 2026-04-29 00:46 | 29.19775 | 41.99244 | 35934 ft | 407 kts | 302° |
| 2026-04-29 00:46 | 29.23574 | 41.94488 | 35938 ft | 407 kts | 302° |
| 2026-04-29 00:47 | 29.27394 | 41.89699 | 35942 ft | 407 kts | 302° |
| 2026-04-29 00:47 | 29.31218 | 41.84902 | 35945 ft | 407 kts | 302° |
| 2026-04-29 00:48 | 29.35043 | 41.80098 | 35946 ft | 408 kts | 302° |
| 2026-04-29 00:48 | 29.38864 | 41.75294 | 35951 ft | 408 kts | 302° |
| 2026-04-29 00:49 | 29.42691 | 41.70476 | 35952 ft | 408 kts | 302° |
| 2026-04-29 00:49 | 29.46492 | 41.65687 | 35955 ft | 408 kts | 302° |
| 2026-04-29 00:50 | 29.50314 | 41.60864 | 35955 ft | 409 kts | 302° |
| 2026-04-29 00:50 | 29.54152 | 41.56016 | 35959 ft | 410 kts | 302° |
| 2026-04-29 00:51 | 29.57992 | 41.51160 | 35964 ft | 410 kts | 302° |
| 2026-04-29 00:51 | 29.61832 | 41.46298 | 35987 ft | 410 kts | 302° |
| 2026-04-29 00:52 | 29.65642 | 41.41468 | 35992 ft | 410 kts | 302° |
| 2026-04-29 00:52 | 29.69475 | 41.36605 | 35997 ft | 410 kts | 302° |
| 2026-04-29 00:53 | 29.73315 | 41.31729 | 36000 ft | 411 kts | 303° |
| 2026-04-29 00:53 | 29.77515 | 41.27205 | 36006 ft | 417 kts | 308° |
| 2026-04-29 00:54 | 29.81838 | 41.22721 | 36010 ft | 418 kts | 308° |
| 2026-04-29 00:54 | 29.86170 | 41.18249 | 36013 ft | 418 kts | 308° |
| 2026-04-29 00:55 | 29.90508 | 41.13779 | 36017 ft | 418 kts | 308° |
| 2026-04-29 00:55 | 29.94824 | 41.09337 | 36018 ft | 418 kts | 308° |
| 2026-04-29 00:56 | 29.99167 | 41.04867 | 36021 ft | 418 kts | 308° |
| 2026-04-29 00:56 | 30.03515 | 41.00390 | 36019 ft | 418 kts | 308° |
| 2026-04-29 00:57 | 30.07858 | 40.95916 | 36022 ft | 418 kts | 308° |
| 2026-04-29 00:57 | 30.12172 | 40.91466 | 36024 ft | 418 kts | 308° |
| 2026-04-29 00:58 | 30.16503 | 40.86995 | 36024 ft | 418 kts | 308° |
| 2026-04-29 00:58 | 30.20847 | 40.82504 | 36015 ft | 418 kts | 308° |
| 2026-04-29 00:59 | 30.25182 | 40.78019 | 36012 ft | 418 kts | 308° |
| 2026-04-29 00:59 | 30.29490 | 40.73556 | 36006 ft | 418 kts | 308° |
| 2026-04-29 01:00 | 30.33832 | 40.69053 | 36002 ft | 418 kts | 308° |
| 2026-04-29 01:00 | 30.38175 | 40.64544 | 36002 ft | 418 kts | 308° |
| 2026-04-29 01:01 | 30.42528 | 40.60051 | 35995 ft | 420 kts | 308° |
| 2026-04-29 01:01 | 30.46895 | 40.55559 | 35986 ft | 422 kts | 309° |
| 2026-04-29 01:02 | 30.51287 | 40.51047 | 35990 ft | 423 kts | 309° |
| 2026-04-29 01:02 | 30.55715 | 40.46497 | 35978 ft | 425 kts | 309° |
| 2026-04-29 01:03 | 30.60142 | 40.41951 | 35976 ft | 425 kts | 310° |
| 2026-04-29 01:03 | 30.64570 | 40.37400 | 35978 ft | 425 kts | 310° |
| 2026-04-29 01:04 | 30.68980 | 40.32863 | 35981 ft | 425 kts | 310° |
| 2026-04-29 01:04 | 30.73412 | 40.28298 | 35982 ft | 426 kts | 310° |
| 2026-04-29 01:05 | 30.77855 | 40.23716 | 35986 ft | 426 kts | 310° |
| 2026-04-29 01:05 | 30.82268 | 40.19162 | 35986 ft | 426 kts | 310° |
| 2026-04-29 01:06 | 30.86710 | 40.14570 | 35990 ft | 427 kts | 310° |
| 2026-04-29 01:06 | 30.91157 | 40.09968 | 35992 ft | 427 kts | 310° |
| 2026-04-29 01:07 | 30.95567 | 40.05399 | 35991 ft | 427 kts | 310° |
| 2026-04-29 01:07 | 31.00007 | 40.00792 | 35992 ft | 426 kts | 310° |
| 2026-04-29 01:08 | 31.04439 | 39.96189 | 35993 ft | 427 kts | 310° |
| 2026-04-29 01:08 | 31.08855 | 39.91595 | 35991 ft | 427 kts | 310° |
| 2026-04-29 01:09 | 31.13288 | 39.86977 | 35992 ft | 427 kts | 310° |
| 2026-04-29 01:09 | 31.17717 | 39.82358 | 35994 ft | 427 kts | 310° |
| 2026-04-29 01:10 | 31.22141 | 39.77737 | 35993 ft | 427 kts | 310° |
| 2026-04-29 01:10 | 31.26547 | 39.73131 | 35994 ft | 427 kts | 310° |
| 2026-04-29 01:11 | 31.30978 | 39.68491 | 35993 ft | 427 kts | 310° |
| 2026-04-29 01:11 | 31.35383 | 39.63873 | 35993 ft | 427 kts | 310° |
| 2026-04-29 01:12 | 31.39805 | 39.59230 | 35993 ft | 427 kts | 310° |
| 2026-04-29 01:12 | 31.44223 | 39.54569 | 35994 ft | 427 kts | 310° |
| 2026-04-29 01:13 | 31.48607 | 39.49886 | 35992 ft | 427 kts | 310° |
| 2026-04-29 01:13 | 31.52984 | 39.45223 | 35993 ft | 426 kts | 311° |
| 2026-04-29 01:14 | 31.57394 | 39.40537 | 35993 ft | 429 kts | 311° |
| 2026-04-29 01:14 | 31.61824 | 39.35838 | 35993 ft | 429 kts | 311° |
| 2026-04-29 01:15 | 31.66224 | 39.31171 | 35993 ft | 428 kts | 311° |
| 2026-04-29 01:15 | 31.70646 | 39.26476 | 35993 ft | 429 kts | 311° |
| 2026-04-29 01:16 | 31.75074 | 39.21772 | 35993 ft | 429 kts | 311° |
| 2026-04-29 01:16 | 31.79503 | 39.17070 | 35993 ft | 430 kts | 312° |
| 2026-04-29 01:17 | 31.84646 | 39.13250 | 35995 ft | 444 kts | 327° |
| 2026-04-29 01:17 | 31.90192 | 39.10129 | 35993 ft | 445 kts | 327° |
| 2026-04-29 01:18 | 31.95794 | 39.07002 | 35993 ft | 445 kts | 327° |
| 2026-04-29 01:18 | 32.04185 | 39.02274 | 35992 ft | 445 kts | 326° |
| 2026-04-29 01:19 | 32.09702 | 38.99002 | 35993 ft | 443 kts | 326° |
| 2026-04-29 01:19 | 32.15212 | 38.95735 | 35993 ft | 443 kts | 326° |
| 2026-04-29 01:20 | 32.20720 | 38.92470 | 35993 ft | 442 kts | 326° |
| 2026-04-29 01:20 | 32.26224 | 38.89207 | 35992 ft | 442 kts | 327° |
| 2026-04-29 01:21 | 32.31692 | 38.85964 | 35993 ft | 442 kts | 327° |
| 2026-04-29 01:21 | 32.37201 | 38.82693 | 35993 ft | 445 kts | 327° |
| 2026-04-29 01:22 | 32.42746 | 38.79401 | 35994 ft | 445 kts | 328° |
| 2026-04-29 01:22 | 32.48279 | 38.76114 | 35994 ft | 445 kts | 328° |
| 2026-04-29 01:23 | 32.53775 | 38.72846 | 35994 ft | 445 kts | 328° |
| 2026-04-29 01:23 | 32.59314 | 38.69548 | 35994 ft | 445 kts | 328° |
| 2026-04-29 01:24 | 32.64844 | 38.66232 | 35994 ft | 445 kts | 329° |
| 2026-04-29 01:24 | 32.70372 | 38.62918 | 35994 ft | 445 kts | 329° |
| 2026-04-29 01:25 | 32.75908 | 38.59601 | 35993 ft | 445 kts | 329° |
| 2026-04-29 01:25 | 32.81446 | 38.56281 | 35995 ft | 446 kts | 328° |
| 2026-04-29 01:26 | 32.86952 | 38.52977 | 35995 ft | 445 kts | 328° |
| 2026-04-29 01:26 | 32.92488 | 38.49653 | 35993 ft | 445 kts | 328° |
| 2026-04-29 01:27 | 32.98034 | 38.46315 | 35993 ft | 445 kts | 328° |
| 2026-04-29 01:27 | 33.03531 | 38.42991 | 35993 ft | 445 kts | 328° |
| 2026-04-29 01:28 | 33.09064 | 38.39644 | 35993 ft | 446 kts | 328° |
| 2026-04-29 01:28 | 33.14596 | 38.36297 | 35993 ft | 446 kts | 328° |
| 2026-04-29 01:29 | 33.20131 | 38.32947 | 35993 ft | 446 kts | 328° |
| 2026-04-29 01:29 | 33.25673 | 38.29573 | 35993 ft | 447 kts | 328° |
| 2026-04-29 01:30 | 33.31208 | 38.26196 | 35993 ft | 446 kts | 328° |
| 2026-04-29 01:30 | 33.35809 | 38.23386 | 35993 ft | 446 kts | 328° |
| 2026-04-29 01:31 | 33.42249 | 38.19451 | 35993 ft | 446 kts | 328° |
| 2026-04-29 01:31 | 33.46863 | 38.16634 | 35993 ft | 447 kts | 328° |
| 2026-04-29 01:32 | 33.52409 | 38.13264 | 35993 ft | 447 kts | 328° |
| 2026-04-29 01:32 | 33.57964 | 38.09888 | 35993 ft | 447 kts | 328° |
| 2026-04-29 01:33 | 33.63505 | 38.06517 | 35993 ft | 447 kts | 328° |
| 2026-04-29 01:33 | 33.69016 | 38.03162 | 35993 ft | 446 kts | 328° |
| 2026-04-29 01:34 | 33.74562 | 37.99782 | 35993 ft | 446 kts | 328° |
| 2026-04-29 01:34 | 33.80125 | 37.96382 | 35993 ft | 448 kts | 329° |
| 2026-04-29 01:35 | 33.85416 | 37.92591 | 35992 ft | 441 kts | 317° |
| 2026-04-29 01:35 | 33.89436 | 37.87133 | 35995 ft | 433 kts | 300° |
| 2026-04-29 01:36 | 33.92729 | 37.81056 | 35993 ft | 433 kts | 300° |
| 2026-04-29 01:36 | 33.95994 | 37.74959 | 35993 ft | 432 kts | 299° |
| 2026-04-29 01:37 | 33.99220 | 37.68889 | 35993 ft | 432 kts | 299° |
| 2026-04-29 01:37 | 34.02451 | 37.62771 | 35993 ft | 432 kts | 299° |
| 2026-04-29 01:38 | 34.05677 | 37.56636 | 35993 ft | 432 kts | 299° |
| 2026-04-29 01:38 | 34.08885 | 37.50511 | 35993 ft | 432 kts | 299° |
| 2026-04-29 01:39 | 34.12069 | 37.44410 | 35989 ft | 431 kts | 299° |
| 2026-04-29 01:39 | 34.15259 | 37.38286 | 35989 ft | 431 kts | 299° |
| 2026-04-29 01:40 | 34.18451 | 37.32135 | 35989 ft | 431 kts | 298° |
| 2026-04-29 01:40 | 34.20837 | 37.25539 | 35989 ft | 427 kts | 283° |
| 2026-04-29 01:41 | 34.21773 | 37.18533 | 35990 ft | 425 kts | 275° |
| 2026-04-29 01:41 | 34.22399 | 37.11424 | 35989 ft | 425 kts | 275° |
| 2026-04-29 01:42 | 34.23003 | 37.04303 | 35988 ft | 426 kts | 275° |
| 2026-04-29 01:42 | 34.23590 | 36.97165 | 35988 ft | 426 kts | 274° |
| 2026-04-29 01:43 | 34.24161 | 36.90077 | 35987 ft | 426 kts | 274° |
| 2026-04-29 01:43 | 34.24726 | 36.82946 | 35986 ft | 426 kts | 274° |
| 2026-04-29 01:44 | 34.25283 | 36.75820 | 35985 ft | 426 kts | 274° |
| 2026-04-29 01:44 | 34.25830 | 36.68740 | 35983 ft | 426 kts | 274° |
| 2026-04-29 01:45 | 34.26375 | 36.61608 | 35981 ft | 426 kts | 274° |
| 2026-04-29 01:45 | 34.26765 | 36.54456 | 35978 ft | 425 kts | 271° |
| 2026-04-29 01:46 | 34.27026 | 36.47337 | 35976 ft | 426 kts | 272° |
| 2026-04-29 01:46 | 34.27292 | 36.40174 | 35973 ft | 426 kts | 272° |
| 2026-04-29 01:47 | 34.27558 | 36.33018 | 35971 ft | 426 kts | 272° |
| 2026-04-29 01:47 | 34.27825 | 36.25857 | 35969 ft | 426 kts | 272° |
| 2026-04-29 01:48 | 34.28087 | 36.18741 | 35968 ft | 426 kts | 272° |
| 2026-04-29 01:48 | 34.28348 | 36.11581 | 35968 ft | 426 kts | 272° |
| 2026-04-29 01:49 | 34.28607 | 36.04425 | 35968 ft | 426 kts | 272° |
| 2026-04-29 01:49 | 34.28881 | 35.97255 | 35968 ft | 426 kts | 272° |
| 2026-04-29 01:50 | 34.29192 | 35.90138 | 35969 ft | 426 kts | 272° |
| 2026-04-29 01:50 | 34.29508 | 35.82989 | 35970 ft | 425 kts | 272° |
| 2026-04-29 01:51 | 34.29824 | 35.75854 | 35971 ft | 424 kts | 272° |
| 2026-04-29 01:51 | 34.30251 | 35.68747 | 35971 ft | 424 kts | 279° |
| 2026-04-29 01:52 | 34.31901 | 35.61932 | 35974 ft | 425 kts | 288° |
| 2026-04-29 01:52 | 34.33831 | 35.55159 | 35974 ft | 425 kts | 288° |
| 2026-04-29 01:53 | 34.35774 | 35.48400 | 35974 ft | 425 kts | 288° |
| 2026-04-29 01:53 | 34.37725 | 35.41642 | 35974 ft | 425 kts | 288° |
| 2026-04-29 01:54 | 34.39668 | 35.34933 | 35973 ft | 424 kts | 288° |
| 2026-04-29 01:54 | 34.41626 | 35.28173 | 35973 ft | 425 kts | 288° |
| 2026-04-29 01:55 | 34.43587 | 35.21403 | 35971 ft | 425 kts | 288° |
| 2026-04-29 01:55 | 34.45545 | 35.14634 | 35970 ft | 425 kts | 288° |
| 2026-04-29 01:56 | 34.47495 | 35.07885 | 35970 ft | 425 kts | 288° |
| 2026-04-29 01:56 | 34.49412 | 35.01089 | 35969 ft | 426 kts | 287° |
| 2026-04-29 01:57 | 34.51298 | 34.94320 | 35968 ft | 426 kts | 287° |
| 2026-04-29 01:57 | 34.53199 | 34.87513 | 35967 ft | 426 kts | 287° |
| 2026-04-29 01:58 | 34.55103 | 34.80695 | 35963 ft | 426 kts | 287° |
| 2026-04-29 01:58 | 34.57007 | 34.73874 | 35963 ft | 426 kts | 287° |
| 2026-04-29 01:59 | 34.58897 | 34.67097 | 35963 ft | 426 kts | 287° |
| 2026-04-29 01:59 | 34.60795 | 34.60282 | 35963 ft | 426 kts | 287° |
| 2026-04-29 02:00 | 34.62689 | 34.53466 | 35963 ft | 426 kts | 287° |
| 2026-04-29 02:00 | 34.64579 | 34.46650 | 35963 ft | 424 kts | 287° |
| 2026-04-29 02:01 | 34.66447 | 34.39894 | 35963 ft | 424 kts | 287° |
| 2026-04-29 02:01 | 34.68324 | 34.33096 | 35963 ft | 424 kts | 287° |
| 2026-04-29 02:02 | 34.70198 | 34.26286 | 35963 ft | 423 kts | 287° |
| 2026-04-29 02:02 | 34.72051 | 34.19541 | 35963 ft | 423 kts | 287° |
| 2026-04-29 02:03 | 34.73910 | 34.12752 | 35963 ft | 422 kts | 287° |
| 2026-04-29 02:03 | 34.75727 | 34.05950 | 35963 ft | 422 kts | 287° |
| 2026-04-29 02:04 | 34.77525 | 33.99185 | 35963 ft | 422 kts | 287° |
| 2026-04-29 02:04 | 34.79337 | 33.92391 | 35963 ft | 422 kts | 287° |
| 2026-04-29 02:05 | 34.81153 | 33.85599 | 35963 ft | 421 kts | 287° |
| 2026-04-29 02:05 | 34.82966 | 33.78832 | 35963 ft | 420 kts | 287° |
| 2026-04-29 02:06 | 34.84778 | 33.72068 | 35963 ft | 419 kts | 287° |
| 2026-04-29 02:06 | 34.86575 | 33.65356 | 35963 ft | 419 kts | 287° |
| 2026-04-29 02:07 | 34.88466 | 33.58632 | 35965 ft | 419 kts | 288° |
| 2026-04-29 02:07 | 34.90424 | 33.51922 | 35967 ft | 420 kts | 288° |
| 2026-04-29 02:08 | 34.92385 | 33.45203 | 35970 ft | 421 kts | 288° |
| 2026-04-29 02:08 | 34.94344 | 33.38462 | 35973 ft | 423 kts | 288° |
| 2026-04-29 02:09 | 34.96297 | 33.31739 | 35976 ft | 423 kts | 288° |
| 2026-04-29 02:09 | 34.98269 | 33.24925 | 35976 ft | 425 kts | 288° |
| 2026-04-29 02:10 | 35.00227 | 33.18160 | 35974 ft | 425 kts | 288° |
| 2026-04-29 02:10 | 35.02185 | 33.11365 | 35970 ft | 425 kts | 288° |
| 2026-04-29 02:11 | 35.04141 | 33.04567 | 35967 ft | 425 kts | 288° |
| 2026-04-29 02:11 | 35.06100 | 32.97759 | 35966 ft | 425 kts | 288° |
| 2026-04-29 02:12 | 35.08012 | 32.90931 | 35966 ft | 424 kts | 287° |
| 2026-04-29 02:12 | 35.09840 | 32.84123 | 35967 ft | 423 kts | 287° |
| 2026-04-29 02:13 | 35.11676 | 32.77278 | 35968 ft | 423 kts | 287° |
| 2026-04-29 02:13 | 35.13505 | 32.70455 | 35968 ft | 422 kts | 287° |
| 2026-04-29 02:14 | 35.15317 | 32.63680 | 35964 ft | 421 kts | 287° |
| 2026-04-29 02:14 | 35.17136 | 32.56867 | 35963 ft | 421 kts | 287° |
| 2026-04-29 02:15 | 35.18936 | 32.50111 | 35963 ft | 420 kts | 287° |
| 2026-04-29 02:15 | 35.20743 | 32.43314 | 35963 ft | 420 kts | 287° |
| 2026-04-29 02:16 | 35.22548 | 32.36506 | 35963 ft | 420 kts | 287° |
| 2026-04-29 02:16 | 35.24348 | 32.29704 | 35963 ft | 420 kts | 287° |
| 2026-04-29 02:17 | 35.26134 | 32.22935 | 35963 ft | 420 kts | 287° |
| 2026-04-29 02:17 | 35.27931 | 32.16109 | 35964 ft | 421 kts | 287° |
| 2026-04-29 02:18 | 35.29720 | 32.09300 | 35975 ft | 422 kts | 287° |
| 2026-04-29 02:18 | 35.31500 | 32.02454 | 35976 ft | 422 kts | 287° |
| 2026-04-29 02:19 | 35.33275 | 31.95607 | 35978 ft | 422 kts | 287° |
| 2026-04-29 02:19 | 35.35060 | 31.88758 | 35980 ft | 422 kts | 287° |
| 2026-04-29 02:20 | 35.36855 | 31.81882 | 35979 ft | 423 kts | 287° |
| 2026-04-29 02:20 | 35.38347 | 31.76170 | 35979 ft | 423 kts | 287° |
| 2026-04-29 02:21 | 35.40433 | 31.68175 | 35980 ft | 423 kts | 287° |
| 2026-04-29 02:21 | 35.41929 | 31.62433 | 35980 ft | 423 kts | 287° |
| 2026-04-29 02:22 | 35.43719 | 31.55552 | 35980 ft | 423 kts | 287° |
| 2026-04-29 02:22 | 35.45505 | 31.48672 | 35971 ft | 423 kts | 287° |
| 2026-04-29 02:23 | 35.47290 | 31.41779 | 35945 ft | 423 kts | 287° |
| 2026-04-29 02:23 | 35.49057 | 31.34941 | 35941 ft | 423 kts | 287° |
| 2026-04-29 02:24 | 35.50840 | 31.28024 | 35955 ft | 425 kts | 287° |
| 2026-04-29 02:25 | 35.53512 | 31.17633 | 35955 ft | 425 kts | 287° |
| 2026-04-29 02:25 | 35.55289 | 31.10696 | 35952 ft | 425 kts | 287° |
| 2026-04-29 02:26 | 35.57051 | 31.03800 | 35950 ft | 425 kts | 287° |
| 2026-04-29 02:26 | 35.58820 | 30.96856 | 35940 ft | 425 kts | 287° |
| 2026-04-29 02:27 | 35.60588 | 30.89901 | 35934 ft | 425 kts | 287° |
| 2026-04-29 02:27 | 35.62334 | 30.82986 | 35934 ft | 426 kts | 287° |
| 2026-04-29 02:28 | 35.64088 | 30.76033 | 35934 ft | 426 kts | 287° |
| 2026-04-29 02:28 | 35.65856 | 30.69076 | 35934 ft | 426 kts | 287° |
| 2026-04-29 02:29 | 35.67631 | 30.62123 | 35934 ft | 426 kts | 287° |
| 2026-04-29 02:29 | 35.69411 | 30.55164 | 35934 ft | 426 kts | 287° |
| 2026-04-29 02:30 | 35.71183 | 30.48241 | 35934 ft | 426 kts | 287° |
| 2026-04-29 02:30 | 35.72966 | 30.41268 | 35934 ft | 426 kts | 287° |
| 2026-04-29 02:31 | 35.74749 | 30.34283 | 35934 ft | 426 kts | 287° |
| 2026-04-29 02:31 | 35.76526 | 30.27312 | 35934 ft | 427 kts | 287° |
| 2026-04-29 02:32 | 35.78289 | 30.20379 | 35934 ft | 427 kts | 287° |
| 2026-04-29 02:32 | 35.80061 | 30.13395 | 35934 ft | 427 kts | 287° |
| 2026-04-29 02:33 | 35.81832 | 30.06399 | 35934 ft | 427 kts | 287° |
| 2026-04-29 02:33 | 35.83608 | 29.99406 | 35935 ft | 426 kts | 287° |
| 2026-04-29 02:34 | 35.85447 | 29.92510 | 35961 ft | 423 kts | 288° |
| 2026-04-29 02:34 | 35.87289 | 29.85658 | 35963 ft | 424 kts | 288° |
| 2026-04-29 02:35 | 35.89151 | 29.78752 | 35963 ft | 424 kts | 288° |
| 2026-04-29 02:35 | 35.91018 | 29.71833 | 35963 ft | 424 kts | 288° |
| 2026-04-29 02:36 | 35.92867 | 29.64978 | 35963 ft | 424 kts | 288° |
| 2026-04-29 02:36 | 35.94940 | 29.58163 | 35962 ft | 425 kts | 296° |
| 2026-04-29 02:37 | 35.98521 | 29.52350 | 35963 ft | 429 kts | 315° |
| 2026-04-29 02:37 | 36.03064 | 29.47546 | 35979 ft | 430 kts | 318° |
| 2026-04-29 02:38 | 36.07648 | 29.42790 | 35981 ft | 430 kts | 318° |
| 2026-04-29 02:38 | 36.12224 | 29.38074 | 35981 ft | 430 kts | 318° |
| 2026-04-29 02:39 | 36.16843 | 29.33333 | 35981 ft | 430 kts | 318° |
| 2026-04-29 02:39 | 36.21418 | 29.28554 | 35982 ft | 429 kts | 317° |
| 2026-04-29 02:40 | 36.25941 | 29.23788 | 35984 ft | 429 kts | 317° |
| 2026-04-29 02:40 | 36.30498 | 29.18990 | 35987 ft | 429 kts | 317° |
| 2026-04-29 02:41 | 36.35050 | 29.14189 | 35991 ft | 429 kts | 317° |
| 2026-04-29 02:41 | 36.39574 | 29.09416 | 35994 ft | 429 kts | 317° |
| 2026-04-29 02:42 | 36.44124 | 29.04614 | 35997 ft | 429 kts | 317° |
| 2026-04-29 02:42 | 36.48672 | 28.99812 | 35997 ft | 429 kts | 317° |
| 2026-04-29 02:43 | 36.53219 | 28.95005 | 35996 ft | 428 kts | 317° |
| 2026-04-29 02:43 | 36.57760 | 28.90199 | 35991 ft | 428 kts | 317° |
| 2026-04-29 02:44 | 36.62268 | 28.85422 | 35985 ft | 428 kts | 317° |
| 2026-04-29 02:44 | 36.66809 | 28.80604 | 35979 ft | 428 kts | 317° |
| 2026-04-29 02:45 | 36.71347 | 28.75778 | 35976 ft | 428 kts | 317° |
| 2026-04-29 02:45 | 36.75856 | 28.70984 | 35980 ft | 428 kts | 317° |
| 2026-04-29 02:46 | 36.80394 | 28.66161 | 35992 ft | 428 kts | 317° |
| 2026-04-29 02:46 | 36.84938 | 28.61330 | 36007 ft | 429 kts | 317° |
| 2026-04-29 02:47 | 36.89487 | 28.56490 | 36019 ft | 429 kts | 317° |
| 2026-04-29 02:47 | 36.94003 | 28.51679 | 36028 ft | 429 kts | 317° |
| 2026-04-29 02:48 | 36.98553 | 28.46827 | 36033 ft | 429 kts | 317° |
| 2026-04-29 02:48 | 37.03117 | 28.41953 | 36035 ft | 430 kts | 317° |
| 2026-04-29 02:49 | 37.07639 | 28.37116 | 36035 ft | 430 kts | 317° |
| 2026-04-29 02:49 | 37.12158 | 28.32204 | 36022 ft | 430 kts | 317° |
| 2026-04-29 02:50 | 37.16676 | 28.27296 | 36033 ft | 430 kts | 317° |
| 2026-04-29 02:50 | 37.21214 | 28.22397 | 36030 ft | 430 kts | 317° |
| 2026-04-29 02:51 | 37.25710 | 28.17542 | 36015 ft | 429 kts | 317° |
| 2026-04-29 02:51 | 37.30237 | 28.12648 | 36012 ft | 429 kts | 317° |
| 2026-04-29 02:52 | 37.34749 | 28.07727 | 36010 ft | 429 kts | 317° |
| 2026-04-29 02:52 | 37.39258 | 28.02803 | 36009 ft | 429 kts | 317° |
| 2026-04-29 02:53 | 37.43735 | 27.97911 | 36008 ft | 428 kts | 317° |
| 2026-04-29 02:53 | 37.48231 | 27.92994 | 36009 ft | 428 kts | 317° |
| 2026-04-29 02:54 | 37.52728 | 27.88070 | 36022 ft | 428 kts | 317° |
| 2026-04-29 02:54 | 37.57215 | 27.83148 | 36028 ft | 428 kts | 317° |
| 2026-04-29 02:55 | 37.61715 | 27.78207 | 36031 ft | 428 kts | 317° |
| 2026-04-29 02:55 | 37.66202 | 27.73271 | 36033 ft | 428 kts | 317° |
| 2026-04-29 02:56 | 37.70690 | 27.68326 | 36035 ft | 428 kts | 317° |
| 2026-04-29 02:56 | 37.75147 | 27.63408 | 36037 ft | 428 kts | 317° |
| 2026-04-29 02:57 | 37.79629 | 27.58455 | 36045 ft | 427 kts | 317° |
| 2026-04-29 02:57 | 37.84109 | 27.53495 | 36051 ft | 427 kts | 317° |
| 2026-04-29 02:58 | 37.88557 | 27.48562 | 36054 ft | 427 kts | 317° |
| 2026-04-29 02:58 | 37.93029 | 27.43614 | 36045 ft | 426 kts | 317° |
| 2026-04-29 02:59 | 37.97497 | 27.38685 | 36035 ft | 426 kts | 317° |
| 2026-04-29 02:59 | 38.01983 | 27.33739 | 36037 ft | 425 kts | 317° |
| 2026-04-29 03:00 | 38.06427 | 27.28840 | 36040 ft | 425 kts | 317° |
| 2026-04-29 03:00 | 38.10909 | 27.23898 | 36033 ft | 427 kts | 317° |
| 2026-04-29 03:01 | 38.15387 | 27.18954 | 36030 ft | 426 kts | 317° |
| 2026-04-29 03:01 | 38.19871 | 27.13998 | 36027 ft | 426 kts | 317° |
| 2026-04-29 03:02 | 38.24313 | 27.09082 | 36024 ft | 426 kts | 317° |
| 2026-04-29 03:02 | 38.28802 | 27.04107 | 36017 ft | 428 kts | 317° |
| 2026-04-29 03:03 | 38.33297 | 26.99119 | 36010 ft | 429 kts | 317° |
| 2026-04-29 03:03 | 38.37778 | 26.94152 | 36005 ft | 429 kts | 316° |
| 2026-04-29 03:04 | 38.42298 | 26.89147 | 36001 ft | 429 kts | 316° |
| 2026-04-29 03:04 | 38.46809 | 26.84151 | 35999 ft | 429 kts | 316° |
| 2026-04-29 03:05 | 38.51322 | 26.79150 | 35998 ft | 429 kts | 316° |
| 2026-04-29 03:05 | 38.55836 | 26.74142 | 35999 ft | 429 kts | 316° |
| 2026-04-29 03:06 | 38.60344 | 26.69136 | 36002 ft | 429 kts | 316° |
| 2026-04-29 03:06 | 38.64819 | 26.64158 | 36016 ft | 428 kts | 316° |
| 2026-04-29 03:07 | 38.69316 | 26.59149 | 36027 ft | 427 kts | 316° |
| 2026-04-29 03:07 | 38.73796 | 26.54149 | 36040 ft | 427 kts | 316° |
| 2026-04-29 03:08 | 38.77506 | 26.50004 | 36072 ft | 424 kts | 316° |
| 2026-04-29 03:08 | 38.81933 | 26.45045 | 36107 ft | 422 kts | 316° |
| 2026-04-29 03:09 | 38.86389 | 26.40203 | 36111 ft | 422 kts | 318° |
| 2026-04-29 03:09 | 38.90915 | 26.35377 | 36111 ft | 422 kts | 318° |
| 2026-04-29 03:10 | 38.95451 | 26.30546 | 36111 ft | 422 kts | 318° |
| 2026-04-29 03:10 | 38.99952 | 26.25751 | 36111 ft | 422 kts | 318° |
| 2026-04-29 03:11 | 39.04481 | 26.20924 | 36111 ft | 422 kts | 318° |
| 2026-04-29 03:11 | 39.09010 | 26.16093 | 36111 ft | 422 kts | 318° |
| 2026-04-29 03:12 | 39.13535 | 26.11260 | 36111 ft | 422 kts | 318° |
| 2026-04-29 03:12 | 39.18028 | 26.06454 | 36111 ft | 422 kts | 318° |
| 2026-04-29 03:13 | 39.22547 | 26.01613 | 36111 ft | 422 kts | 318° |
| 2026-04-29 03:13 | 39.27069 | 25.96761 | 36111 ft | 422 kts | 318° |
| 2026-04-29 03:14 | 39.31540 | 25.91853 | 36111 ft | 421 kts | 317° |
| 2026-04-29 03:14 | 39.35975 | 25.86890 | 36111 ft | 421 kts | 317° |
| 2026-04-29 03:15 | 39.40388 | 25.81954 | 36110 ft | 422 kts | 317° |
| 2026-04-29 03:15 | 39.44830 | 25.76988 | 36104 ft | 422 kts | 317° |
| 2026-04-29 03:16 | 39.49274 | 25.72016 | 36102 ft | 422 kts | 317° |
| 2026-04-29 03:16 | 39.53712 | 25.67046 | 36100 ft | 422 kts | 317° |
| 2026-04-29 03:17 | 39.58155 | 25.62062 | 36099 ft | 422 kts | 317° |
| 2026-04-29 03:17 | 39.62568 | 25.57105 | 36097 ft | 422 kts | 317° |
| 2026-04-29 03:18 | 39.66997 | 25.52123 | 36096 ft | 421 kts | 317° |
| 2026-04-29 03:18 | 39.71428 | 25.47131 | 36094 ft | 421 kts | 317° |
| 2026-04-29 03:19 | 39.75841 | 25.42151 | 36092 ft | 421 kts | 317° |
| 2026-04-29 03:19 | 39.80268 | 25.37146 | 36090 ft | 421 kts | 317° |
| 2026-04-29 03:20 | 39.84686 | 25.32142 | 36088 ft | 421 kts | 317° |
| 2026-04-29 03:20 | 39.89102 | 25.27131 | 36087 ft | 421 kts | 317° |
| 2026-04-29 03:21 | 39.93323 | 25.21880 | 36086 ft | 419 kts | 307° |
| 2026-04-29 03:21 | 39.96715 | 25.15760 | 36090 ft | 419 kts | 304° |
| 2026-04-29 03:22 | 40.00096 | 25.09538 | 36097 ft | 421 kts | 304° |
| 2026-04-29 03:22 | 40.03477 | 25.03288 | 36103 ft | 422 kts | 304° |
| 2026-04-29 03:23 | 40.06839 | 24.97052 | 36106 ft | 421 kts | 304° |
| 2026-04-29 03:23 | 40.10212 | 24.90778 | 36106 ft | 421 kts | 304° |
| 2026-04-29 03:24 | 40.13578 | 24.84502 | 36105 ft | 421 kts | 304° |
| 2026-04-29 03:24 | 40.16915 | 24.78262 | 36104 ft | 421 kts | 304° |
| 2026-04-29 03:25 | 40.20274 | 24.71970 | 36104 ft | 421 kts | 304° |
| 2026-04-29 03:25 | 40.23619 | 24.65688 | 36104 ft | 421 kts | 304° |
| 2026-04-29 03:26 | 40.26947 | 24.59427 | 36104 ft | 420 kts | 304° |
| 2026-04-29 03:26 | 40.30285 | 24.53128 | 36109 ft | 422 kts | 305° |
| 2026-04-29 03:27 | 40.33628 | 24.46813 | 36111 ft | 421 kts | 305° |
| 2026-04-29 03:27 | 40.36968 | 24.40492 | 36111 ft | 421 kts | 305° |
| 2026-04-29 03:28 | 40.40283 | 24.34206 | 36111 ft | 421 kts | 305° |
| 2026-04-29 03:28 | 40.43602 | 24.27891 | 36124 ft | 420 kts | 305° |
| 2026-04-29 03:29 | 40.46923 | 24.21567 | 36128 ft | 420 kts | 305° |
| 2026-04-29 03:29 | 40.50235 | 24.15245 | 36130 ft | 419 kts | 305° |
| 2026-04-29 03:30 | 40.53541 | 24.08922 | 36133 ft | 419 kts | 305° |
| 2026-04-29 03:30 | 40.56842 | 24.02595 | 36136 ft | 419 kts | 305° |
| 2026-04-29 03:31 | 40.61747 | 23.93099 | 36141 ft | 419 kts | 305° |
| 2026-04-29 03:31 | 40.65008 | 23.86747 | 36145 ft | 419 kts | 305° |
| 2026-04-29 03:32 | 40.68280 | 23.80403 | 36147 ft | 418 kts | 305° |
| 2026-04-29 03:32 | 40.71536 | 23.74103 | 36152 ft | 418 kts | 305° |
| 2026-04-29 03:33 | 40.74819 | 23.67758 | 36151 ft | 418 kts | 306° |
| 2026-04-29 03:33 | 40.78099 | 23.61415 | 36150 ft | 418 kts | 306° |
| 2026-04-29 03:34 | 40.81354 | 23.55116 | 36147 ft | 418 kts | 305° |
| 2026-04-29 03:34 | 40.84634 | 23.48758 | 36145 ft | 418 kts | 305° |
| 2026-04-29 03:35 | 40.87902 | 23.42415 | 36143 ft | 418 kts | 305° |
| 2026-04-29 03:35 | 40.91174 | 23.36051 | 36141 ft | 418 kts | 305° |
| 2026-04-29 03:36 | 40.94445 | 23.29678 | 36140 ft | 418 kts | 305° |
| 2026-04-29 03:36 | 40.97681 | 23.23343 | 36139 ft | 418 kts | 305° |
| 2026-04-29 03:37 | 41.00922 | 23.16923 | 36139 ft | 418 kts | 305° |
| 2026-04-29 03:37 | 41.04158 | 23.10528 | 36140 ft | 418 kts | 305° |
| 2026-04-29 03:38 | 41.07375 | 23.04179 | 36140 ft | 418 kts | 305° |
| 2026-04-29 03:38 | 41.10723 | 22.97887 | 36139 ft | 417 kts | 310° |
| 2026-04-29 03:39 | 41.14456 | 22.91998 | 36138 ft | 417 kts | 311° |
| 2026-04-29 03:39 | 41.18207 | 22.86119 | 36138 ft | 417 kts | 311° |
| 2026-04-29 03:40 | 41.21960 | 22.80247 | 36137 ft | 417 kts | 311° |
| 2026-04-29 03:40 | 41.25570 | 22.74261 | 36137 ft | 418 kts | 305° |
| 2026-04-29 03:41 | 41.28825 | 22.67852 | 36140 ft | 418 kts | 305° |
| 2026-04-29 03:41 | 41.32082 | 22.61408 | 36140 ft | 418 kts | 305° |
| 2026-04-29 03:42 | 41.35300 | 22.55021 | 36140 ft | 418 kts | 305° |
| 2026-04-29 03:42 | 41.38535 | 22.48580 | 36139 ft | 419 kts | 305° |
| 2026-04-29 03:43 | 41.41775 | 22.42110 | 36135 ft | 419 kts | 305° |
| 2026-04-29 03:43 | 41.45008 | 22.35636 | 36134 ft | 419 kts | 305° |
| 2026-04-29 03:44 | 41.48234 | 22.29160 | 36133 ft | 419 kts | 305° |
| 2026-04-29 03:44 | 41.51436 | 22.22717 | 36133 ft | 419 kts | 305° |
| 2026-04-29 03:45 | 41.54662 | 22.16213 | 36132 ft | 419 kts | 305° |
| 2026-04-29 03:45 | 41.57873 | 22.09722 | 36132 ft | 419 kts | 304° |
| 2026-04-29 03:46 | 41.61081 | 22.03225 | 36131 ft | 419 kts | 304° |
| 2026-04-29 03:46 | 41.64285 | 21.96721 | 36130 ft | 419 kts | 304° |
| 2026-04-29 03:47 | 41.67475 | 21.90231 | 36129 ft | 419 kts | 304° |
| 2026-04-29 03:47 | 41.70679 | 21.83699 | 36127 ft | 419 kts | 304° |
| 2026-04-29 03:48 | 41.73879 | 21.77161 | 36125 ft | 419 kts | 304° |
| 2026-04-29 03:48 | 41.77051 | 21.70666 | 36123 ft | 420 kts | 304° |
| 2026-04-29 03:49 | 41.80245 | 21.64111 | 36121 ft | 420 kts | 304° |
| 2026-04-29 03:49 | 41.83438 | 21.57545 | 36119 ft | 420 kts | 304° |
| 2026-04-29 03:50 | 41.86629 | 21.50968 | 36118 ft | 421 kts | 304° |
| 2026-04-29 03:50 | 41.89816 | 21.44383 | 36118 ft | 420 kts | 304° |
| 2026-04-29 03:51 | 41.92999 | 21.37795 | 36121 ft | 420 kts | 304° |
| 2026-04-29 03:51 | 41.96171 | 21.31212 | 36125 ft | 419 kts | 304° |
| 2026-04-29 03:52 | 41.99316 | 21.24671 | 36129 ft | 418 kts | 304° |
| 2026-04-29 03:52 | 42.02472 | 21.18099 | 36126 ft | 417 kts | 303° |
| 2026-04-29 03:53 | 42.05605 | 21.11552 | 36127 ft | 416 kts | 303° |
| 2026-04-29 03:53 | 42.08718 | 21.05035 | 36129 ft | 415 kts | 303° |
| 2026-04-29 03:54 | 42.11842 | 20.98480 | 36128 ft | 415 kts | 303° |
| 2026-04-29 03:54 | 42.14958 | 20.91928 | 36124 ft | 415 kts | 303° |
| 2026-04-29 03:55 | 42.18059 | 20.85396 | 36117 ft | 415 kts | 303° |
| 2026-04-29 03:55 | 42.21170 | 20.78826 | 36109 ft | 416 kts | 303° |
| 2026-04-29 03:56 | 42.24282 | 20.72241 | 36102 ft | 416 kts | 303° |
| 2026-04-29 03:56 | 42.26872 | 20.66750 | 36098 ft | 416 kts | 303° |
| 2026-04-29 03:57 | 42.30484 | 20.59073 | 36093 ft | 416 kts | 303° |
| 2026-04-29 03:57 | 42.33088 | 20.53526 | 36091 ft | 416 kts | 302° |
| 2026-04-29 03:58 | 42.36171 | 20.46948 | 36084 ft | 417 kts | 302° |
| 2026-04-29 03:58 | 42.39269 | 20.40320 | 36082 ft | 417 kts | 302° |
| 2026-04-29 03:59 | 42.42369 | 20.33675 | 36083 ft | 417 kts | 302° |
| 2026-04-29 03:59 | 42.45464 | 20.27024 | 36085 ft | 417 kts | 302° |
| 2026-04-29 04:00 | 42.48531 | 20.20413 | 36124 ft | 414 kts | 303° |
| 2026-04-29 04:00 | 42.51578 | 20.13842 | 36129 ft | 414 kts | 303° |
| 2026-04-29 04:01 | 42.54645 | 20.07215 | 36101 ft | 414 kts | 302° |
| 2026-04-29 04:01 | 42.57698 | 20.00590 | 36097 ft | 414 kts | 302° |
| 2026-04-29 04:02 | 42.60751 | 19.93956 | 36096 ft | 414 kts | 302° |
| 2026-04-29 04:02 | 42.63791 | 19.87338 | 36097 ft | 414 kts | 302° |
| 2026-04-29 04:03 | 42.66680 | 19.80608 | 36096 ft | 414 kts | 300° |
| 2026-04-29 04:03 | 42.69576 | 19.73828 | 36095 ft | 414 kts | 301° |
| 2026-04-29 04:04 | 42.72494 | 19.67045 | 36093 ft | 415 kts | 301° |
| 2026-04-29 04:04 | 42.75390 | 19.60316 | 36091 ft | 415 kts | 301° |
| 2026-04-29 04:05 | 42.78303 | 19.53540 | 36084 ft | 413 kts | 300° |
| 2026-04-29 04:05 | 42.81204 | 19.46779 | 36078 ft | 413 kts | 300° |
| 2026-04-29 04:06 | 42.84102 | 19.40007 | 36076 ft | 413 kts | 300° |
| 2026-04-29 04:06 | 42.86998 | 19.33225 | 36076 ft | 413 kts | 300° |
| 2026-04-29 04:07 | 42.89870 | 19.26484 | 36074 ft | 414 kts | 301° |
| 2026-04-29 04:07 | 42.92765 | 19.19673 | 36075 ft | 413 kts | 301° |
| 2026-04-29 04:08 | 42.95644 | 19.12882 | 36077 ft | 413 kts | 301° |
| 2026-04-29 04:08 | 42.98497 | 19.06136 | 36079 ft | 412 kts | 301° |
| 2026-04-29 04:09 | 43.01364 | 18.99342 | 36079 ft | 412 kts | 301° |
| 2026-04-29 04:09 | 43.04228 | 18.92536 | 36081 ft | 413 kts | 301° |
| 2026-04-29 04:10 | 43.07091 | 18.85721 | 36081 ft | 413 kts | 301° |
| 2026-04-29 04:10 | 43.09941 | 18.78920 | 36081 ft | 413 kts | 301° |
| 2026-04-29 04:11 | 43.12801 | 18.72078 | 36081 ft | 414 kts | 301° |
| 2026-04-29 04:11 | 43.15654 | 18.65235 | 36081 ft | 413 kts | 301° |
| 2026-04-29 04:12 | 43.18505 | 18.58382 | 36081 ft | 414 kts | 301° |
| 2026-04-29 04:12 | 43.21353 | 18.51518 | 36081 ft | 414 kts | 301° |
| 2026-04-29 04:13 | 43.24186 | 18.44676 | 36081 ft | 414 kts | 300° |
| 2026-04-29 04:13 | 43.27033 | 18.37782 | 36081 ft | 415 kts | 300° |
| 2026-04-29 04:14 | 43.29859 | 18.30921 | 36091 ft | 415 kts | 300° |
| 2026-04-29 04:14 | 43.32703 | 18.24002 | 36092 ft | 415 kts | 300° |
| 2026-04-29 04:15 | 43.35541 | 18.17081 | 36091 ft | 415 kts | 300° |
| 2026-04-29 04:15 | 43.38356 | 18.10198 | 36091 ft | 415 kts | 300° |
| 2026-04-29 04:16 | 43.41187 | 18.03261 | 36090 ft | 416 kts | 300° |
| 2026-04-29 04:16 | 43.44019 | 17.96304 | 36089 ft | 416 kts | 300° |
| 2026-04-29 04:17 | 43.46828 | 17.89386 | 36089 ft | 416 kts | 300° |
| 2026-04-29 04:17 | 43.49648 | 17.82424 | 36090 ft | 416 kts | 300° |
| 2026-04-29 04:18 | 43.52453 | 17.75479 | 36099 ft | 414 kts | 300° |
| 2026-04-29 04:18 | 43.55244 | 17.68556 | 36104 ft | 413 kts | 300° |
| 2026-04-29 04:19 | 43.57477 | 17.61262 | 36082 ft | 414 kts | 289° |
| 2026-04-29 04:19 | 43.59322 | 17.53734 | 36071 ft | 415 kts | 289° |
| 2026-04-29 04:20 | 43.61155 | 17.46221 | 36049 ft | 416 kts | 289° |
| 2026-04-29 04:20 | 43.62996 | 17.38638 | 36035 ft | 416 kts | 289° |
| 2026-04-29 04:21 | 43.64829 | 17.31054 | 36028 ft | 416 kts | 289° |
| 2026-04-29 04:21 | 43.66660 | 17.23455 | 36016 ft | 417 kts | 288° |
| 2026-04-29 04:22 | 43.68471 | 17.15895 | 36009 ft | 417 kts | 288° |
| 2026-04-29 04:22 | 43.70291 | 17.08272 | 36007 ft | 418 kts | 288° |
| 2026-04-29 04:23 | 43.72107 | 17.00634 | 36006 ft | 418 kts | 288° |
| 2026-04-29 04:23 | 43.73919 | 16.92992 | 36006 ft | 418 kts | 288° |
| 2026-04-29 04:24 | 43.75713 | 16.85385 | 36011 ft | 417 kts | 288° |
| 2026-04-29 04:24 | 43.77509 | 16.77758 | 36016 ft | 416 kts | 288° |
| 2026-04-29 04:25 | 43.79298 | 16.70132 | 36022 ft | 416 kts | 288° |
| 2026-04-29 04:25 | 43.81079 | 16.62512 | 36026 ft | 416 kts | 288° |
| 2026-04-29 04:26 | 43.82854 | 16.54893 | 36030 ft | 416 kts | 288° |
| 2026-04-29 04:26 | 43.84627 | 16.47251 | 36051 ft | 416 kts | 288° |
| 2026-04-29 04:27 | 43.86383 | 16.39660 | 36080 ft | 416 kts | 288° |
| 2026-04-29 04:27 | 43.88143 | 16.32020 | 36097 ft | 414 kts | 288° |
| 2026-04-29 04:28 | 43.89885 | 16.24425 | 36121 ft | 413 kts | 289° |
| 2026-04-29 04:28 | 43.91625 | 16.16826 | 36137 ft | 413 kts | 289° |
| 2026-04-29 04:29 | 43.93354 | 16.09243 | 36150 ft | 412 kts | 289° |
| 2026-04-29 04:29 | 43.95064 | 16.01716 | 36157 ft | 412 kts | 289° |
| 2026-04-29 04:30 | 43.96782 | 15.94126 | 36159 ft | 412 kts | 288° |
| 2026-04-29 04:31 | 43.99353 | 15.82721 | 36151 ft | 412 kts | 288° |
| 2026-04-29 04:31 | 44.01058 | 15.75125 | 36139 ft | 411 kts | 288° |
| 2026-04-29 04:32 | 44.02761 | 15.67510 | 36120 ft | 412 kts | 288° |
| 2026-04-29 04:32 | 44.04445 | 15.59950 | 36099 ft | 412 kts | 288° |
| 2026-04-29 04:33 | 44.06139 | 15.52324 | 36081 ft | 412 kts | 288° |
| 2026-04-29 04:33 | 44.07828 | 15.44689 | 36068 ft | 412 kts | 288° |
| 2026-04-29 04:34 | 44.09520 | 15.37064 | 36060 ft | 412 kts | 289° |
| 2026-04-29 04:34 | 44.11938 | 15.29898 | 36060 ft | 412 kts | 298° |
| 2026-04-29 04:35 | 44.14697 | 15.22893 | 36061 ft | 412 kts | 299° |
| 2026-04-29 04:35 | 44.17509 | 15.15943 | 36066 ft | 412 kts | 300° |
| 2026-04-29 04:36 | 44.20313 | 15.09033 | 36070 ft | 412 kts | 300° |
| 2026-04-29 04:36 | 44.23135 | 15.02076 | 36073 ft | 412 kts | 300° |
| 2026-04-29 04:37 | 44.25953 | 14.95118 | 36069 ft | 412 kts | 299° |
| 2026-04-29 04:37 | 44.28756 | 14.88180 | 36068 ft | 412 kts | 299° |
| 2026-04-29 04:38 | 44.31567 | 14.81207 | 36067 ft | 412 kts | 299° |
| 2026-04-29 04:38 | 44.34373 | 14.74228 | 36067 ft | 412 kts | 299° |
| 2026-04-29 04:39 | 44.37158 | 14.67283 | 36066 ft | 412 kts | 299° |
| 2026-04-29 04:39 | 44.39955 | 14.60289 | 36065 ft | 412 kts | 299° |
| 2026-04-29 04:40 | 44.42750 | 14.53286 | 36064 ft | 412 kts | 299° |
| 2026-04-29 04:40 | 44.45537 | 14.46282 | 36062 ft | 412 kts | 298° |
| 2026-04-29 04:41 | 44.48310 | 14.39296 | 36054 ft | 409 kts | 298° |
| 2026-04-29 04:41 | 44.51051 | 14.32371 | 36052 ft | 409 kts | 298° |
| 2026-04-29 04:42 | 44.53810 | 14.25385 | 36052 ft | 409 kts | 298° |
| 2026-04-29 04:42 | 44.56565 | 14.18392 | 36052 ft | 409 kts | 298° |
| 2026-04-29 04:43 | 44.59312 | 14.11400 | 36052 ft | 409 kts | 298° |
| 2026-04-29 04:43 | 44.62039 | 14.04442 | 36052 ft | 408 kts | 298° |
| 2026-04-29 04:44 | 44.64780 | 13.97432 | 36052 ft | 408 kts | 298° |
| 2026-04-29 04:44 | 44.67051 | 13.91611 | 36052 ft | 408 kts | 298° |
| 2026-04-29 04:45 | 44.70230 | 13.83440 | 36052 ft | 408 kts | 298° |
| 2026-04-29 04:45 | 44.72934 | 13.76472 | 36052 ft | 408 kts | 298° |
| 2026-04-29 04:46 | 44.75209 | 13.70594 | 36052 ft | 408 kts | 298° |
| 2026-04-29 04:46 | 44.77899 | 13.63628 | 36052 ft | 408 kts | 298° |
| 2026-04-29 04:47 | 44.80602 | 13.56611 | 36052 ft | 407 kts | 298° |
| 2026-04-29 04:47 | 44.83299 | 13.49593 | 36052 ft | 407 kts | 297° |
| 2026-04-29 04:48 | 44.85984 | 13.42586 | 36052 ft | 406 kts | 297° |
| 2026-04-29 04:48 | 44.88667 | 13.35569 | 36052 ft | 405 kts | 297° |
| 2026-04-29 04:49 | 44.91319 | 13.28612 | 36052 ft | 405 kts | 297° |
| 2026-04-29 04:49 | 44.93986 | 13.21601 | 36052 ft | 404 kts | 297° |
| 2026-04-29 04:50 | 44.96642 | 13.14601 | 36052 ft | 404 kts | 297° |
| 2026-04-29 04:50 | 44.99149 | 13.07497 | 36052 ft | 403 kts | 290° |
| 2026-04-29 04:51 | 45.01136 | 13.00131 | 36051 ft | 404 kts | 290° |
| 2026-04-29 04:51 | 45.03136 | 12.92703 | 36050 ft | 404 kts | 290° |
| 2026-04-29 04:52 | 45.05134 | 12.85263 | 36048 ft | 405 kts | 290° |
| 2026-04-29 04:52 | 45.07133 | 12.77799 | 36046 ft | 406 kts | 290° |
| 2026-04-29 04:53 | 45.09134 | 12.70304 | 36041 ft | 407 kts | 290° |
| 2026-04-29 04:53 | 45.11123 | 12.62832 | 36037 ft | 409 kts | 290° |
| 2026-04-29 04:54 | 45.13128 | 12.55270 | 36032 ft | 410 kts | 290° |
| 2026-04-29 04:54 | 45.15137 | 12.47671 | 36028 ft | 412 kts | 289° |
| 2026-04-29 04:55 | 45.17127 | 12.40113 | 36027 ft | 411 kts | 289° |
| 2026-04-29 04:55 | 45.19125 | 12.32504 | 36027 ft | 411 kts | 289° |
| 2026-04-29 04:56 | 45.21119 | 12.24880 | 36028 ft | 411 kts | 289° |
| 2026-04-29 04:56 | 45.23100 | 12.17284 | 36020 ft | 416 kts | 289° |
| 2026-04-29 04:57 | 45.25105 | 12.09571 | 36012 ft | 416 kts | 289° |
| 2026-04-29 04:57 | 45.27108 | 12.01840 | 36008 ft | 418 kts | 289° |
| 2026-04-29 04:58 | 45.29101 | 11.94119 | 36004 ft | 419 kts | 289° |
| 2026-04-29 04:58 | 45.31105 | 11.86332 | 36001 ft | 420 kts | 289° |
| 2026-04-29 04:59 | 45.33112 | 11.78507 | 35996 ft | 421 kts | 289° |
| 2026-04-29 04:59 | 45.35115 | 11.70665 | 35996 ft | 421 kts | 289° |
| 2026-04-29 05:00 | 45.37097 | 11.62881 | 35996 ft | 421 kts | 289° |
| 2026-04-29 05:00 | 45.39089 | 11.55032 | 35996 ft | 421 kts | 289° |
| 2026-04-29 05:01 | 45.41072 | 11.47192 | 35996 ft | 421 kts | 289° |
| 2026-04-29 05:01 | 45.43052 | 11.39332 | 35996 ft | 421 kts | 288° |
| 2026-04-29 05:02 | 45.45001 | 11.31571 | 36012 ft | 416 kts | 289° |
| 2026-04-29 05:02 | 45.46940 | 11.23819 | 36023 ft | 414 kts | 288° |
| 2026-04-29 05:03 | 45.48863 | 11.16105 | 36035 ft | 412 kts | 288° |
| 2026-04-29 05:03 | 45.50766 | 11.08444 | 36055 ft | 406 kts | 288° |
| 2026-04-29 05:04 | 45.52634 | 11.00899 | 36064 ft | 405 kts | 288° |
| 2026-04-29 05:04 | 45.54509 | 10.93307 | 36069 ft | 406 kts | 288° |
| 2026-04-29 05:05 | 45.56376 | 10.85717 | 36074 ft | 403 kts | 288° |
| 2026-04-29 05:05 | 45.58229 | 10.78160 | 36076 ft | 403 kts | 288° |
| 2026-04-29 05:06 | 45.60067 | 10.70642 | 36075 ft | 403 kts | 288° |
| 2026-04-29 05:06 | 45.61913 | 10.63064 | 36073 ft | 403 kts | 288° |
| 2026-04-29 05:07 | 45.63740 | 10.55536 | 36072 ft | 403 kts | 288° |
| 2026-04-29 05:07 | 45.65314 | 10.47862 | 36070 ft | 403 kts | 279° |
| 2026-04-29 05:08 | 45.65649 | 10.39858 | 36070 ft | 403 kts | 272° |
| 2026-04-29 05:08 | 45.65812 | 10.31854 | 36068 ft | 402 kts | 272° |
| 2026-04-29 05:09 | 45.65957 | 10.23921 | 36068 ft | 401 kts | 272° |
| 2026-04-29 05:09 | 45.66093 | 10.15912 | 36069 ft | 403 kts | 272° |
| 2026-04-29 05:10 | 45.66219 | 10.07912 | 36070 ft | 402 kts | 272° |
| 2026-04-29 05:10 | 45.66337 | 9.99905 | 36072 ft | 403 kts | 271° |
| 2026-04-29 05:11 | 45.66471 | 9.92006 | 36071 ft | 383 kts | 272° |
| 2026-04-29 05:11 | 45.66555 | 9.88315 | 36071 ft | 367 kts | 272° |
| 2026-04-29 05:11 | 45.66633 | 9.84747 | 36071 ft | 352 kts | 272° |
| 2026-04-29 05:11 | 45.66711 | 9.81314 | 36063 ft | 337 kts | 272° |
| 2026-04-29 05:12 | 45.66787 | 9.78027 | 36058 ft | 322 kts | 272° |
| 2026-04-29 05:12 | 45.66860 | 9.74900 | 36054 ft | 306 kts | 272° |
| 2026-04-29 05:12 | 45.67005 | 9.71983 | 36046 ft | 288 kts | 277° |
| 2026-04-29 05:12 | 45.67340 | 9.69261 | 36013 ft | 270 kts | 286° |
| 2026-04-29 05:13 | 45.68080 | 9.66894 | 35891 ft | 248 kts | 297° |
| 2026-04-29 05:13 | 45.68918 | 9.64805 | 35283 ft | 239 kts | 298° |
| 2026-04-29 05:13 | 45.69773 | 9.62710 | 34100 ft | 250 kts | 298° |
| 2026-04-29 05:13 | 45.70665 | 9.60527 | 33091 ft | 253 kts | 298° |
| 2026-04-29 05:14 | 45.71534 | 9.58409 | 32539 ft | 239 kts | 298° |
| 2026-04-29 05:14 | 45.72347 | 9.56429 | 31934 ft | 230 kts | 298° |
| 2026-04-29 05:14 | 45.73160 | 9.54442 | 31070 ft | 233 kts | 298° |
| 2026-04-29 05:14 | 45.73986 | 9.52426 | 30291 ft | 232 kts | 298° |
| 2026-04-29 05:15 | 45.74790 | 9.50465 | 29719 ft | 224 kts | 298° |
| 2026-04-29 05:15 | 45.75387 | 9.48442 | 28976 ft | 221 kts | 274° |
| 2026-04-29 05:15 | 45.75227 | 9.46203 | 27904 ft | 237 kts | 246° |
| 2026-04-29 05:15 | 45.74232 | 9.44320 | 27166 ft | 246 kts | 218° |
| 2026-04-29 05:16 | 45.72671 | 9.43368 | 26717 ft | 248 kts | 190° |
| 2026-04-29 05:16 | 45.70925 | 9.43571 | 26066 ft | 261 kts | 163° |
| 2026-04-29 05:16 | 45.69329 | 9.44942 | 25309 ft | 277 kts | 136° |
| 2026-04-29 05:16 | 45.68259 | 9.47234 | 24760 ft | 278 kts | 110° |
| 2026-04-29 05:17 | 45.67933 | 9.49917 | 24262 ft | 273 kts | 86° |
| 2026-04-29 05:17 | 45.68068 | 9.52592 | 23841 ft | 265 kts | 84° |
| 2026-04-29 05:17 | 45.68232 | 9.55190 | 23446 ft | 260 kts | 85° |
| 2026-04-29 05:17 | 45.68296 | 9.57745 | 22906 ft | 262 kts | 92° |
| 2026-04-29 05:18 | 45.68164 | 9.60338 | 22417 ft | 260 kts | 97° |
| 2026-04-29 05:18 | 45.67910 | 9.62864 | 22064 ft | 253 kts | 101° |
| 2026-04-29 05:18 | 45.67588 | 9.65326 | 21653 ft | 251 kts | 103° |
| 2026-04-29 05:18 | 45.67217 | 9.67764 | 21212 ft | 251 kts | 104° |
| 2026-04-29 05:19 | 45.66809 | 9.70174 | 20844 ft | 247 kts | 105° |
| 2026-04-29 05:19 | 45.66400 | 9.72545 | 20492 ft | 244 kts | 106° |
| 2026-04-29 05:19 | 45.65983 | 9.74890 | 20115 ft | 243 kts | 106° |
| 2026-04-29 05:19 | 45.65443 | 9.77159 | 19697 ft | 240 kts | 126° |
| 2026-04-29 05:20 | 45.64331 | 9.78898 | 19114 ft | 238 kts | 155° |
| 2026-04-29 05:20 | 45.62855 | 9.79754 | 18782 ft | 227 kts | 162° |
| 2026-04-29 05:20 | 45.61555 | 9.80983 | 18544 ft | 229 kts | 133° |
| 2026-04-29 05:20 | 45.60770 | 9.83013 | 18016 ft | 242 kts | 103° |
| 2026-04-29 05:21 | 45.60741 | 9.85410 | 17652 ft | 241 kts | 73° |
| 2026-04-29 05:21 | 45.61467 | 9.87498 | 17435 ft | 232 kts | 44° |
| 2026-04-29 05:21 | 45.62744 | 9.88833 | 17057 ft | 229 kts | 14° |
| 2026-04-29 05:21 | 45.64286 | 9.89115 | 16668 ft | 222 kts | 343° |
| 2026-04-29 05:22 | 45.65657 | 9.88279 | 16403 ft | 210 kts | 312° |
| 2026-04-29 05:22 | 45.66469 | 9.86631 | 16108 ft | 202 kts | 281° |
| 2026-04-29 05:22 | 45.66618 | 9.84653 | 15865 ft | 197 kts | 266° |
| 2026-04-29 05:22 | 45.66547 | 9.82760 | 15832 ft | 186 kts | 261° |
| 2026-04-29 05:23 | 45.66298 | 9.80957 | 15519 ft | 191 kts | 250° |
| 2026-04-29 05:23 | 45.65704 | 9.79221 | 15162 ft | 197 kts | 232° |
| 2026-04-29 05:23 | 45.64774 | 9.77818 | 15044 ft | 191 kts | 218° |
| 2026-04-29 05:23 | 45.63558 | 9.77038 | 14738 ft | 200 kts | 186° |
| 2026-04-29 05:24 | 45.62131 | 9.77154 | 14417 ft | 208 kts | 164° |
| 2026-04-29 05:24 | 45.60860 | 9.78080 | 14368 ft | 204 kts | 141° |
| 2026-04-29 05:24 | 45.59931 | 9.79623 | 14144 ft | 210 kts | 119° |
| 2026-04-29 05:24 | 45.59447 | 9.81622 | 13874 ft | 217 kts | 97° |
| 2026-04-29 05:25 | 45.59486 | 9.83746 | 13782 ft | 212 kts | 76° |
| 2026-04-29 05:25 | 45.60026 | 9.85688 | 13605 ft | 213 kts | 55° |
| 2026-04-29 05:25 | 45.61015 | 9.87260 | 13372 ft | 214 kts | 34° |
| 2026-04-29 05:25 | 45.62313 | 9.88231 | 13242 ft | 208 kts | 12° |
| 2026-04-29 05:26 | 45.63710 | 9.88473 | 13087 ft | 204 kts | 351° |
| 2026-04-29 05:26 | 45.65072 | 9.87955 | 12882 ft | 202 kts | 327° |
| 2026-04-29 05:26 | 45.66160 | 9.86746 | 12733 ft | 197 kts | 304° |
| 2026-04-29 05:26 | 45.66789 | 9.85051 | 12584 ft | 193 kts | 279° |
| 2026-04-29 05:27 | 45.66844 | 9.83157 | 12401 ft | 191 kts | 254° |
| 2026-04-29 05:27 | 45.65294 | 9.80259 | 12110 ft | 190 kts | 202° |
| 2026-04-29 05:27 | 45.64005 | 9.79851 | 11962 ft | 193 kts | 177° |
| 2026-04-29 05:28 | 45.62697 | 9.80306 | 11826 ft | 196 kts | 152° |
| 2026-04-29 05:28 | 45.61647 | 9.81510 | 11706 ft | 199 kts | 127° |
| 2026-04-29 05:28 | 45.61016 | 9.83276 | 11590 ft | 202 kts | 103° |
| 2026-04-29 05:28 | 45.60931 | 9.85271 | 11470 ft | 203 kts | 79° |
| 2026-04-29 05:29 | 45.61401 | 9.87165 | 11359 ft | 204 kts | 56° |
| 2026-04-29 05:29 | 45.62345 | 9.88650 | 11253 ft | 203 kts | 32° |
| 2026-04-29 05:29 | 45.63608 | 9.89496 | 11144 ft | 201 kts | 9° |
| 2026-04-29 05:29 | 45.64985 | 9.89565 | 11031 ft | 198 kts | 345° |
| 2026-04-29 05:30 | 45.66245 | 9.88846 | 10922 ft | 195 kts | 320° |
| 2026-04-29 05:30 | 45.67165 | 9.87465 | 10812 ft | 192 kts | 295° |
| 2026-04-29 05:30 | 45.67568 | 9.85678 | 10707 ft | 189 kts | 269° |
| 2026-04-29 05:30 | 45.67371 | 9.83846 | 10601 ft | 187 kts | 243° |
| 2026-04-29 05:31 | 45.66625 | 9.82372 | 10504 ft | 187 kts | 216° |
| 2026-04-29 05:31 | 45.65467 | 9.81541 | 10409 ft | 188 kts | 189° |
| 2026-04-29 05:31 | 45.64162 | 9.81567 | 10316 ft | 190 kts | 162° |
| 2026-04-29 05:31 | 45.62991 | 9.82447 | 10234 ft | 193 kts | 136° |
| 2026-04-29 05:32 | 45.62212 | 9.83968 | 10157 ft | 195 kts | 111° |
| 2026-04-29 05:32 | 45.61955 | 9.85865 | 10073 ft | 197 kts | 85° |
| 2026-04-29 05:32 | 45.62283 | 9.87753 | 10001 ft | 197 kts | 60° |
| 2026-04-29 05:32 | 45.63133 | 9.89281 | 9923 ft | 197 kts | 35° |
| 2026-04-29 05:33 | 45.64343 | 9.90166 | 9850 ft | 196 kts | 10° |
| 2026-04-29 05:33 | 45.65234 | 9.90320 | 9806 ft | 195 kts | 353° |
| 2026-04-29 05:33 | 45.66533 | 9.89869 | 9726 ft | 192 kts | 328° |
| 2026-04-29 05:33 | 45.67555 | 9.88681 | 9648 ft | 190 kts | 302° |
| 2026-04-29 05:34 | 45.68093 | 9.86996 | 9580 ft | 187 kts | 275° |
| 2026-04-29 05:34 | 45.68033 | 9.85160 | 9502 ft | 185 kts | 248° |
| 2026-04-29 05:34 | 45.67382 | 9.83595 | 9428 ft | 184 kts | 220° |
| 2026-04-29 05:34 | 45.66291 | 9.82663 | 9371 ft | 185 kts | 193° |
| 2026-04-29 05:35 | 45.65029 | 9.82579 | 9305 ft | 187 kts | 165° |
| 2026-04-29 05:35 | 45.63856 | 9.83367 | 9246 ft | 189 kts | 138° |
| 2026-04-29 05:35 | 45.63057 | 9.84857 | 9207 ft | 191 kts | 111° |
| 2026-04-29 05:35 | 45.62806 | 9.86718 | 9146 ft | 194 kts | 85° |
| 2026-04-29 05:36 | 45.63158 | 9.88575 | 9093 ft | 195 kts | 58° |
| 2026-04-29 05:36 | 45.64032 | 9.90031 | 9048 ft | 195 kts | 33° |
| 2026-04-29 05:36 | 45.65255 | 9.90823 | 8987 ft | 194 kts | 7° |
| 2026-04-29 05:36 | 45.66572 | 9.90799 | 8936 ft | 192 kts | 341° |
| 2026-04-29 05:37 | 45.67746 | 9.89966 | 8886 ft | 189 kts | 314° |
| 2026-04-29 05:37 | 45.68523 | 9.88491 | 8825 ft | 186 kts | 287° |
| 2026-04-29 05:37 | 45.68731 | 9.86693 | 8771 ft | 184 kts | 259° |
| 2026-04-29 05:37 | 45.68319 | 9.84991 | 8722 ft | 182 kts | 231° |
| 2026-04-29 05:38 | 45.67384 | 9.83794 | 8667 ft | 182 kts | 202° |
| 2026-04-29 05:38 | 45.66153 | 9.83408 | 8623 ft | 183 kts | 174° |
| 2026-04-29 05:38 | 45.64939 | 9.83927 | 8595 ft | 185 kts | 146° |
| 2026-04-29 05:38 | 45.64034 | 9.85223 | 8546 ft | 189 kts | 118° |
| 2026-04-29 05:39 | 45.63643 | 9.87009 | 8509 ft | 191 kts | 90° |
| 2026-04-29 05:39 | 45.63859 | 9.88874 | 8473 ft | 193 kts | 64° |
| 2026-04-29 05:39 | 45.64636 | 9.90423 | 8431 ft | 193 kts | 37° |
| 2026-04-29 05:39 | 45.65809 | 9.91333 | 8397 ft | 192 kts | 10° |
| 2026-04-29 05:40 | 45.67115 | 9.91422 | 8361 ft | 191 kts | 344° |
| 2026-04-29 05:40 | 45.68313 | 9.90683 | 8320 ft | 188 kts | 316° |
| 2026-04-29 05:40 | 45.69132 | 9.89268 | 8281 ft | 185 kts | 289° |
| 2026-04-29 05:40 | 45.69391 | 9.87493 | 8242 ft | 182 kts | 261° |
| 2026-04-29 05:41 | 45.69024 | 9.85788 | 8197 ft | 181 kts | 232° |
| 2026-04-29 05:41 | 45.68117 | 9.84569 | 8159 ft | 180 kts | 203° |
| 2026-04-29 05:41 | 45.66905 | 9.84158 | 8135 ft | 181 kts | 174° |
| 2026-04-29 05:41 | 45.65714 | 9.84654 | 8097 ft | 184 kts | 146° |
| 2026-04-29 05:42 | 45.64816 | 9.85946 | 8061 ft | 187 kts | 117° |
| 2026-04-29 05:42 | 45.64447 | 9.87726 | 8036 ft | 189 kts | 89° |
| 2026-04-29 05:42 | 45.64695 | 9.89567 | 8010 ft | 191 kts | 62° |
| 2026-04-29 05:42 | 45.65500 | 9.91067 | 7976 ft | 192 kts | 35° |
| 2026-04-29 05:43 | 45.66692 | 9.91907 | 7947 ft | 192 kts | 8° |
| 2026-04-29 05:43 | 45.68006 | 9.91907 | 7929 ft | 189 kts | 341° |
| 2026-04-29 05:43 | 45.69156 | 9.91091 | 7892 ft | 187 kts | 314° |
| 2026-04-29 05:43 | 45.69923 | 9.89604 | 7807 ft | 188 kts | 285° |